<?xml version="1.0" encoding="UTF-8" standalone="no" ?>
<gpx xmlns="http://www.topografix.com/GPX/1/1" xmlns:xsi="http://www.w3.org/2001/XMLSchema-instance" xsi:schemaLocation="http://www.topografix.com/GPX/1/1 http://www.topografix.com/GPX/1/1/gpx.xsd" version="1.1" creator="VisuGPX - https://www.visugpx.com">
  <metadata>
    <name>RANDO QUEYRIERES TESTAVOYRE 17 KM</name>
    <desc><![CDATA[RANDO QUEYRIERES TESTAVOYRE 17 KM.DEPART ARRIVEE QUEYRIERES.RAFFY.TESTAVOYRE.LA CUNETTE.LE VILLARET.MONEDEYRES.LACHAUD]]></desc>
  </metadata>
  <trk>
    <name><![CDATA[29-SEPT-22 17:32:10]]></name>
    <extensions>
      <line xmlns="http://www.topografix.com/GPX/gpx_style/0/2">
        <color>0000FF</color>
        <width>4</width>
      </line>
    </extensions>
    <trkseg>
      <trkpt lat="45.07357" lon="4.09944">
        <ele>1140.26</ele>
        <time>2022-09-29T10:57:44Z</time>
      </trkpt>
      <trkpt lat="45.07366" lon="4.09922">
        <ele>1141.7</ele>
        <time>2022-09-29T10:58:01Z</time>
      </trkpt>
      <trkpt lat="45.07384" lon="4.09906">
        <ele>1140.74</ele>
        <time>2022-09-29T10:58:18Z</time>
      </trkpt>
      <trkpt lat="45.07388" lon="4.09904">
        <ele>1140.74</ele>
        <time>2022-09-29T10:58:21Z</time>
      </trkpt>
      <trkpt lat="45.07396" lon="4.09905">
        <ele>1140.74</ele>
        <time>2022-09-29T10:58:27Z</time>
      </trkpt>
      <trkpt lat="45.07417" lon="4.09915">
        <ele>1143.14</ele>
        <time>2022-09-29T10:58:46Z</time>
      </trkpt>
      <trkpt lat="45.07437" lon="4.09926">
        <ele>1144.11</ele>
        <time>2022-09-29T10:59:03Z</time>
      </trkpt>
      <trkpt lat="45.07456" lon="4.09937">
        <ele>1144.59</ele>
        <time>2022-09-29T10:59:18Z</time>
      </trkpt>
      <trkpt lat="45.07476" lon="4.09948">
        <ele>1146.51</ele>
        <time>2022-09-29T10:59:34Z</time>
      </trkpt>
      <trkpt lat="45.07491" lon="4.09959">
        <ele>1148.91</ele>
        <time>2022-09-29T10:59:49Z</time>
      </trkpt>
      <trkpt lat="45.07508" lon="4.09979">
        <ele>1156.6</ele>
        <time>2022-09-29T11:00:08Z</time>
      </trkpt>
      <trkpt lat="45.07523" lon="4.0999">
        <ele>1163.33</ele>
        <time>2022-09-29T11:00:24Z</time>
      </trkpt>
      <trkpt lat="45.07533" lon="4.10008">
        <ele>1167.66</ele>
        <time>2022-09-29T11:00:36Z</time>
      </trkpt>
      <trkpt lat="45.07541" lon="4.10037">
        <ele>1163.33</ele>
        <time>2022-09-29T11:00:51Z</time>
      </trkpt>
      <trkpt lat="45.07545" lon="4.10045">
        <ele>1164.29</ele>
        <time>2022-09-29T11:00:58Z</time>
      </trkpt>
      <trkpt lat="45.07549" lon="4.10065">
        <ele>1168.14</ele>
        <time>2022-09-29T11:01:14Z</time>
      </trkpt>
      <trkpt lat="45.07552" lon="4.10082">
        <ele>1168.62</ele>
        <time>2022-09-29T11:01:25Z</time>
      </trkpt>
      <trkpt lat="45.07553" lon="4.10089">
        <ele>1169.1</ele>
        <time>2022-09-29T11:01:30Z</time>
      </trkpt>
      <trkpt lat="45.07554" lon="4.10102">
        <ele>1170.54</ele>
        <time>2022-09-29T11:01:39Z</time>
      </trkpt>
      <trkpt lat="45.07558" lon="4.10128">
        <ele>1171.98</ele>
        <time>2022-09-29T11:01:54Z</time>
      </trkpt>
      <trkpt lat="45.07559" lon="4.10133">
        <ele>1172.47</ele>
        <time>2022-09-29T11:01:57Z</time>
      </trkpt>
      <trkpt lat="45.07568" lon="4.10147">
        <ele>1172.47</ele>
        <time>2022-09-29T11:02:10Z</time>
      </trkpt>
      <trkpt lat="45.07578" lon="4.10164">
        <ele>1174.87</ele>
        <time>2022-09-29T11:02:25Z</time>
      </trkpt>
      <trkpt lat="45.07591" lon="4.1018">
        <ele>1179.67</ele>
        <time>2022-09-29T11:02:40Z</time>
      </trkpt>
      <trkpt lat="45.07601" lon="4.10197">
        <ele>1183.04</ele>
        <time>2022-09-29T11:02:54Z</time>
      </trkpt>
      <trkpt lat="45.07605" lon="4.10215">
        <ele>1182.56</ele>
        <time>2022-09-29T11:03:06Z</time>
      </trkpt>
      <trkpt lat="45.07608" lon="4.10233">
        <ele>1182.56</ele>
        <time>2022-09-29T11:03:17Z</time>
      </trkpt>
      <trkpt lat="45.07607" lon="4.10261">
        <ele>1182.56</ele>
        <time>2022-09-29T11:03:32Z</time>
      </trkpt>
      <trkpt lat="45.07609" lon="4.10286">
        <ele>1181.6</ele>
        <time>2022-09-29T11:03:45Z</time>
      </trkpt>
      <trkpt lat="45.07612" lon="4.10319">
        <ele>1180.16</ele>
        <time>2022-09-29T11:04:03Z</time>
      </trkpt>
      <trkpt lat="45.07609" lon="4.10354">
        <ele>1175.83</ele>
        <time>2022-09-29T11:04:23Z</time>
      </trkpt>
      <trkpt lat="45.07607" lon="4.10369">
        <ele>1176.31</ele>
        <time>2022-09-29T11:04:31Z</time>
      </trkpt>
      <trkpt lat="45.07596" lon="4.10394">
        <ele>1175.83</ele>
        <time>2022-09-29T11:04:48Z</time>
      </trkpt>
      <trkpt lat="45.07592" lon="4.10404">
        <ele>1176.79</ele>
        <time>2022-09-29T11:04:57Z</time>
      </trkpt>
      <trkpt lat="45.07585" lon="4.10418">
        <ele>1176.31</ele>
        <time>2022-09-29T11:05:07Z</time>
      </trkpt>
      <trkpt lat="45.07578" lon="4.10426">
        <ele>1176.31</ele>
        <time>2022-09-29T11:05:14Z</time>
      </trkpt>
      <trkpt lat="45.07572" lon="4.10436">
        <ele>1176.31</ele>
        <time>2022-09-29T11:05:22Z</time>
      </trkpt>
      <trkpt lat="45.07563" lon="4.10456">
        <ele>1178.71</ele>
        <time>2022-09-29T11:05:35Z</time>
      </trkpt>
      <trkpt lat="45.07559" lon="4.10461">
        <ele>1179.67</ele>
        <time>2022-09-29T11:05:50Z</time>
      </trkpt>
      <trkpt lat="45.07555" lon="4.1047">
        <ele>1183.04</ele>
        <time>2022-09-29T11:06:06Z</time>
      </trkpt>
      <trkpt lat="45.07542" lon="4.10493">
        <ele>1184.48</ele>
        <time>2022-09-29T11:06:21Z</time>
      </trkpt>
      <trkpt lat="45.07518" lon="4.1051">
        <ele>1185.44</ele>
        <time>2022-09-29T11:06:42Z</time>
      </trkpt>
      <trkpt lat="45.07495" lon="4.1052">
        <ele>1186.4</ele>
        <time>2022-09-29T11:07:01Z</time>
      </trkpt>
      <trkpt lat="45.07491" lon="4.10522">
        <ele>1186.4</ele>
        <time>2022-09-29T11:07:05Z</time>
      </trkpt>
      <trkpt lat="45.07468" lon="4.10542">
        <ele>1188.33</ele>
        <time>2022-09-29T11:07:26Z</time>
      </trkpt>
      <trkpt lat="45.0745" lon="4.10562">
        <ele>1186.88</ele>
        <time>2022-09-29T11:07:45Z</time>
      </trkpt>
      <trkpt lat="45.07429" lon="4.10578">
        <ele>1186.4</ele>
        <time>2022-09-29T11:08:03Z</time>
      </trkpt>
      <trkpt lat="45.07406" lon="4.10591">
        <ele>1186.88</ele>
        <time>2022-09-29T11:08:23Z</time>
      </trkpt>
      <trkpt lat="45.07385" lon="4.10616">
        <ele>1186.4</ele>
        <time>2022-09-29T11:08:41Z</time>
      </trkpt>
      <trkpt lat="45.07362" lon="4.10634">
        <ele>1185.44</ele>
        <time>2022-09-29T11:09:01Z</time>
      </trkpt>
      <trkpt lat="45.07355" lon="4.10642">
        <ele>1184.96</ele>
        <time>2022-09-29T11:09:08Z</time>
      </trkpt>
      <trkpt lat="45.07341" lon="4.10654">
        <ele>1183.52</ele>
        <time>2022-09-29T11:09:21Z</time>
      </trkpt>
      <trkpt lat="45.07337" lon="4.10655">
        <ele>1185.44</ele>
        <time>2022-09-29T11:09:36Z</time>
      </trkpt>
      <trkpt lat="45.07337" lon="4.10655">
        <ele>1185.44</ele>
        <time>2022-09-29T11:09:37Z</time>
      </trkpt>
      <trkpt lat="45.07327" lon="4.10666">
        <ele>1183.04</ele>
        <time>2022-09-29T11:09:45Z</time>
      </trkpt>
      <trkpt lat="45.07314" lon="4.10683">
        <ele>1182.56</ele>
        <time>2022-09-29T11:09:56Z</time>
      </trkpt>
      <trkpt lat="45.07302" lon="4.10695">
        <ele>1184.96</ele>
        <time>2022-09-29T11:10:09Z</time>
      </trkpt>
      <trkpt lat="45.07302" lon="4.10695">
        <ele>1185.44</ele>
        <time>2022-09-29T11:10:19Z</time>
      </trkpt>
      <trkpt lat="45.07293" lon="4.10709">
        <ele>1184.48</ele>
        <time>2022-09-29T11:10:27Z</time>
      </trkpt>
      <trkpt lat="45.07287" lon="4.10715">
        <ele>1184</ele>
        <time>2022-09-29T11:10:32Z</time>
      </trkpt>
      <trkpt lat="45.07282" lon="4.10719">
        <ele>1185.44</ele>
        <time>2022-09-29T11:10:35Z</time>
      </trkpt>
      <trkpt lat="45.07262" lon="4.10733">
        <ele>1188.81</ele>
        <time>2022-09-29T11:10:49Z</time>
      </trkpt>
      <trkpt lat="45.07244" lon="4.10754">
        <ele>1191.69</ele>
        <time>2022-09-29T11:11:04Z</time>
      </trkpt>
      <trkpt lat="45.0724" lon="4.10759">
        <ele>1191.69</ele>
        <time>2022-09-29T11:11:08Z</time>
      </trkpt>
      <trkpt lat="45.07224" lon="4.10773">
        <ele>1190.73</ele>
        <time>2022-09-29T11:11:18Z</time>
      </trkpt>
      <trkpt lat="45.07206" lon="4.10796">
        <ele>1188.33</ele>
        <time>2022-09-29T11:11:34Z</time>
      </trkpt>
      <trkpt lat="45.07192" lon="4.1081">
        <ele>1188.33</ele>
        <time>2022-09-29T11:11:47Z</time>
      </trkpt>
      <trkpt lat="45.07179" lon="4.10822">
        <ele>1188.33</ele>
        <time>2022-09-29T11:11:57Z</time>
      </trkpt>
      <trkpt lat="45.0717" lon="4.10831">
        <ele>1188.81</ele>
        <time>2022-09-29T11:12:09Z</time>
      </trkpt>
      <trkpt lat="45.07162" lon="4.10835">
        <ele>1188.33</ele>
        <time>2022-09-29T11:12:33Z</time>
      </trkpt>
      <trkpt lat="45.07142" lon="4.10853">
        <ele>1192.17</ele>
        <time>2022-09-29T11:12:48Z</time>
      </trkpt>
      <trkpt lat="45.07126" lon="4.10868">
        <ele>1190.25</ele>
        <time>2022-09-29T11:12:59Z</time>
      </trkpt>
      <trkpt lat="45.07125" lon="4.10872">
        <ele>1189.77</ele>
        <time>2022-09-29T11:13:01Z</time>
      </trkpt>
      <trkpt lat="45.07112" lon="4.10888">
        <ele>1189.77</ele>
        <time>2022-09-29T11:13:14Z</time>
      </trkpt>
      <trkpt lat="45.07107" lon="4.10899">
        <ele>1190.73</ele>
        <time>2022-09-29T11:13:21Z</time>
      </trkpt>
      <trkpt lat="45.07104" lon="4.10905">
        <ele>1192.17</ele>
        <time>2022-09-29T11:13:25Z</time>
      </trkpt>
      <trkpt lat="45.07102" lon="4.10908">
        <ele>1192.65</ele>
        <time>2022-09-29T11:13:27Z</time>
      </trkpt>
      <trkpt lat="45.071" lon="4.10913">
        <ele>1193.13</ele>
        <time>2022-09-29T11:13:30Z</time>
      </trkpt>
      <trkpt lat="45.0709" lon="4.10932">
        <ele>1196.02</ele>
        <time>2022-09-29T11:13:45Z</time>
      </trkpt>
      <trkpt lat="45.07081" lon="4.10947">
        <ele>1198.42</ele>
        <time>2022-09-29T11:13:58Z</time>
      </trkpt>
      <trkpt lat="45.07072" lon="4.10966">
        <ele>1197.94</ele>
        <time>2022-09-29T11:14:12Z</time>
      </trkpt>
      <trkpt lat="45.0707" lon="4.1097">
        <ele>1197.94</ele>
        <time>2022-09-29T11:14:18Z</time>
      </trkpt>
      <trkpt lat="45.07064" lon="4.10994">
        <ele>1201.3</ele>
        <time>2022-09-29T11:14:32Z</time>
      </trkpt>
      <trkpt lat="45.0706" lon="4.11001">
        <ele>1202.27</ele>
        <time>2022-09-29T11:14:36Z</time>
      </trkpt>
      <trkpt lat="45.07056" lon="4.11005">
        <ele>1203.71</ele>
        <time>2022-09-29T11:14:40Z</time>
      </trkpt>
      <trkpt lat="45.0704" lon="4.11021">
        <ele>1205.63</ele>
        <time>2022-09-29T11:14:56Z</time>
      </trkpt>
      <trkpt lat="45.07035" lon="4.11028">
        <ele>1206.59</ele>
        <time>2022-09-29T11:15:04Z</time>
      </trkpt>
      <trkpt lat="45.07029" lon="4.1104">
        <ele>1208.03</ele>
        <time>2022-09-29T11:15:13Z</time>
      </trkpt>
      <trkpt lat="45.07024" lon="4.11055">
        <ele>1209.96</ele>
        <time>2022-09-29T11:15:25Z</time>
      </trkpt>
      <trkpt lat="45.07016" lon="4.11074">
        <ele>1210.92</ele>
        <time>2022-09-29T11:15:40Z</time>
      </trkpt>
      <trkpt lat="45.0701" lon="4.11103">
        <ele>1212.36</ele>
        <time>2022-09-29T11:16:01Z</time>
      </trkpt>
      <trkpt lat="45.07004" lon="4.11133">
        <ele>1214.28</ele>
        <time>2022-09-29T11:16:21Z</time>
      </trkpt>
      <trkpt lat="45.06998" lon="4.11166">
        <ele>1217.17</ele>
        <time>2022-09-29T11:16:43Z</time>
      </trkpt>
      <trkpt lat="45.06991" lon="4.11194">
        <ele>1220.53</ele>
        <time>2022-09-29T11:17:02Z</time>
      </trkpt>
      <trkpt lat="45.0699" lon="4.11222">
        <ele>1221.49</ele>
        <time>2022-09-29T11:17:25Z</time>
      </trkpt>
      <trkpt lat="45.06984" lon="4.1125">
        <ele>1226.3</ele>
        <time>2022-09-29T11:17:43Z</time>
      </trkpt>
      <trkpt lat="45.06983" lon="4.11253">
        <ele>1226.78</ele>
        <time>2022-09-29T11:17:45Z</time>
      </trkpt>
      <trkpt lat="45.06976" lon="4.11285">
        <ele>1230.62</ele>
        <time>2022-09-29T11:18:06Z</time>
      </trkpt>
      <trkpt lat="45.06973" lon="4.11299">
        <ele>1231.11</ele>
        <time>2022-09-29T11:18:19Z</time>
      </trkpt>
      <trkpt lat="45.06968" lon="4.11313">
        <ele>1233.03</ele>
        <time>2022-09-29T11:18:37Z</time>
      </trkpt>
      <trkpt lat="45.06968" lon="4.11355">
        <ele>1233.99</ele>
        <time>2022-09-29T11:18:59Z</time>
      </trkpt>
      <trkpt lat="45.06961" lon="4.11378">
        <ele>1236.87</ele>
        <time>2022-09-29T11:19:16Z</time>
      </trkpt>
      <trkpt lat="45.06956" lon="4.11408">
        <ele>1238.8</ele>
        <time>2022-09-29T11:19:34Z</time>
      </trkpt>
      <trkpt lat="45.06951" lon="4.11445">
        <ele>1241.2</ele>
        <time>2022-09-29T11:19:55Z</time>
      </trkpt>
      <trkpt lat="45.06951" lon="4.11446">
        <ele>1242.16</ele>
        <time>2022-09-29T11:20:13Z</time>
      </trkpt>
      <trkpt lat="45.0695" lon="4.11461">
        <ele>1244.08</ele>
        <time>2022-09-29T11:20:37Z</time>
      </trkpt>
      <trkpt lat="45.06952" lon="4.11474">
        <ele>1246.01</ele>
        <time>2022-09-29T11:20:44Z</time>
      </trkpt>
      <trkpt lat="45.06949" lon="4.1151">
        <ele>1251.29</ele>
        <time>2022-09-29T11:21:02Z</time>
      </trkpt>
      <trkpt lat="45.06946" lon="4.11517">
        <ele>1251.77</ele>
        <time>2022-09-29T11:21:06Z</time>
      </trkpt>
      <trkpt lat="45.0694" lon="4.11554">
        <ele>1254.18</ele>
        <time>2022-09-29T11:21:26Z</time>
      </trkpt>
      <trkpt lat="45.06935" lon="4.11585">
        <ele>1255.62</ele>
        <time>2022-09-29T11:21:44Z</time>
      </trkpt>
      <trkpt lat="45.06925" lon="4.11618">
        <ele>1253.22</ele>
        <time>2022-09-29T11:22:04Z</time>
      </trkpt>
      <trkpt lat="45.06924" lon="4.11644">
        <ele>1250.33</ele>
        <time>2022-09-29T11:22:20Z</time>
      </trkpt>
      <trkpt lat="45.06919" lon="4.11674">
        <ele>1251.77</ele>
        <time>2022-09-29T11:22:36Z</time>
      </trkpt>
      <trkpt lat="45.06917" lon="4.11704">
        <ele>1253.22</ele>
        <time>2022-09-29T11:22:54Z</time>
      </trkpt>
      <trkpt lat="45.06914" lon="4.11732">
        <ele>1255.14</ele>
        <time>2022-09-29T11:23:11Z</time>
      </trkpt>
      <trkpt lat="45.06908" lon="4.11763">
        <ele>1257.54</ele>
        <time>2022-09-29T11:23:29Z</time>
      </trkpt>
      <trkpt lat="45.06911" lon="4.11787">
        <ele>1260.91</ele>
        <time>2022-09-29T11:23:45Z</time>
      </trkpt>
      <trkpt lat="45.06915" lon="4.11804">
        <ele>1263.31</ele>
        <time>2022-09-29T11:23:58Z</time>
      </trkpt>
      <trkpt lat="45.0693" lon="4.1183">
        <ele>1265.71</ele>
        <time>2022-09-29T11:24:19Z</time>
      </trkpt>
      <trkpt lat="45.06942" lon="4.11854">
        <ele>1269.56</ele>
        <time>2022-09-29T11:24:38Z</time>
      </trkpt>
      <trkpt lat="45.06949" lon="4.11882">
        <ele>1270.52</ele>
        <time>2022-09-29T11:24:56Z</time>
      </trkpt>
      <trkpt lat="45.06951" lon="4.1191">
        <ele>1273.4</ele>
        <time>2022-09-29T11:25:12Z</time>
      </trkpt>
      <trkpt lat="45.06956" lon="4.11943">
        <ele>1273.88</ele>
        <time>2022-09-29T11:25:33Z</time>
      </trkpt>
      <trkpt lat="45.06956" lon="4.11945">
        <ele>1273.88</ele>
        <time>2022-09-29T11:25:34Z</time>
      </trkpt>
      <trkpt lat="45.06957" lon="4.11982">
        <ele>1272.44</ele>
        <time>2022-09-29T11:25:57Z</time>
      </trkpt>
      <trkpt lat="45.06963" lon="4.12013">
        <ele>1272.92</ele>
        <time>2022-09-29T11:26:16Z</time>
      </trkpt>
      <trkpt lat="45.06968" lon="4.12037">
        <ele>1273.88</ele>
        <time>2022-09-29T11:26:31Z</time>
      </trkpt>
      <trkpt lat="45.06977" lon="4.12065">
        <ele>1273.88</ele>
        <time>2022-09-29T11:26:48Z</time>
      </trkpt>
      <trkpt lat="45.06987" lon="4.12094">
        <ele>1273.4</ele>
        <time>2022-09-29T11:27:06Z</time>
      </trkpt>
      <trkpt lat="45.06997" lon="4.12129">
        <ele>1272.92</ele>
        <time>2022-09-29T11:27:26Z</time>
      </trkpt>
      <trkpt lat="45.07007" lon="4.12159">
        <ele>1272.44</ele>
        <time>2022-09-29T11:27:45Z</time>
      </trkpt>
      <trkpt lat="45.07019" lon="4.12189">
        <ele>1273.4</ele>
        <time>2022-09-29T11:28:06Z</time>
      </trkpt>
      <trkpt lat="45.07027" lon="4.1221">
        <ele>1274.36</ele>
        <time>2022-09-29T11:28:20Z</time>
      </trkpt>
      <trkpt lat="45.07043" lon="4.12243">
        <ele>1272.44</ele>
        <time>2022-09-29T11:28:42Z</time>
      </trkpt>
      <trkpt lat="45.07058" lon="4.12275">
        <ele>1272.92</ele>
        <time>2022-09-29T11:29:01Z</time>
      </trkpt>
      <trkpt lat="45.07068" lon="4.12297">
        <ele>1270.04</ele>
        <time>2022-09-29T11:29:18Z</time>
      </trkpt>
      <trkpt lat="45.07082" lon="4.1232">
        <ele>1267.16</ele>
        <time>2022-09-29T11:29:35Z</time>
      </trkpt>
      <trkpt lat="45.07099" lon="4.12341">
        <ele>1266.19</ele>
        <time>2022-09-29T11:29:56Z</time>
      </trkpt>
      <trkpt lat="45.0712" lon="4.1237">
        <ele>1271</ele>
        <time>2022-09-29T11:30:15Z</time>
      </trkpt>
      <trkpt lat="45.07134" lon="4.12398">
        <ele>1269.08</ele>
        <time>2022-09-29T11:30:34Z</time>
      </trkpt>
      <trkpt lat="45.07143" lon="4.1242">
        <ele>1269.08</ele>
        <time>2022-09-29T11:30:49Z</time>
      </trkpt>
      <trkpt lat="45.07149" lon="4.12445">
        <ele>1268.12</ele>
        <time>2022-09-29T11:31:05Z</time>
      </trkpt>
      <trkpt lat="45.07151" lon="4.12474">
        <ele>1265.71</ele>
        <time>2022-09-29T11:31:22Z</time>
      </trkpt>
      <trkpt lat="45.07146" lon="4.12486">
        <ele>1264.27</ele>
        <time>2022-09-29T11:31:30Z</time>
      </trkpt>
      <trkpt lat="45.07135" lon="4.12509">
        <ele>1260.91</ele>
        <time>2022-09-29T11:31:45Z</time>
      </trkpt>
      <trkpt lat="45.0713" lon="4.12523">
        <ele>1258.02</ele>
        <time>2022-09-29T11:31:59Z</time>
      </trkpt>
      <trkpt lat="45.07119" lon="4.12554">
        <ele>1257.54</ele>
        <time>2022-09-29T11:32:15Z</time>
      </trkpt>
      <trkpt lat="45.0711" lon="4.12587">
        <ele>1258.02</ele>
        <time>2022-09-29T11:32:32Z</time>
      </trkpt>
      <trkpt lat="45.07102" lon="4.12618">
        <ele>1255.62</ele>
        <time>2022-09-29T11:32:50Z</time>
      </trkpt>
      <trkpt lat="45.07095" lon="4.12651">
        <ele>1254.18</ele>
        <time>2022-09-29T11:33:07Z</time>
      </trkpt>
      <trkpt lat="45.07089" lon="4.1267">
        <ele>1254.18</ele>
        <time>2022-09-29T11:33:18Z</time>
      </trkpt>
      <trkpt lat="45.07086" lon="4.12674">
        <ele>1254.18</ele>
        <time>2022-09-29T11:33:21Z</time>
      </trkpt>
      <trkpt lat="45.07075" lon="4.12698">
        <ele>1255.62</ele>
        <time>2022-09-29T11:33:39Z</time>
      </trkpt>
      <trkpt lat="45.07048" lon="4.12701">
        <ele>1258.02</ele>
        <time>2022-09-29T11:34:04Z</time>
      </trkpt>
      <trkpt lat="45.07017" lon="4.12696">
        <ele>1261.87</ele>
        <time>2022-09-29T11:34:28Z</time>
      </trkpt>
      <trkpt lat="45.07002" lon="4.12699">
        <ele>1263.31</ele>
        <time>2022-09-29T11:34:48Z</time>
      </trkpt>
      <trkpt lat="45.06981" lon="4.12726">
        <ele>1260.43</ele>
        <time>2022-09-29T11:35:07Z</time>
      </trkpt>
      <trkpt lat="45.06967" lon="4.12766">
        <ele>1264.75</ele>
        <time>2022-09-29T11:35:27Z</time>
      </trkpt>
      <trkpt lat="45.0696" lon="4.12801">
        <ele>1269.56</ele>
        <time>2022-09-29T11:35:46Z</time>
      </trkpt>
      <trkpt lat="45.06945" lon="4.1282">
        <ele>1267.64</ele>
        <time>2022-09-29T11:36:04Z</time>
      </trkpt>
      <trkpt lat="45.06942" lon="4.1282">
        <ele>1265.23</ele>
        <time>2022-09-29T11:36:10Z</time>
      </trkpt>
      <trkpt lat="45.06924" lon="4.12829">
        <ele>1264.27</ele>
        <time>2022-09-29T11:36:27Z</time>
      </trkpt>
      <trkpt lat="45.06903" lon="4.12836">
        <ele>1267.64</ele>
        <time>2022-09-29T11:36:46Z</time>
      </trkpt>
      <trkpt lat="45.06888" lon="4.12858">
        <ele>1270.52</ele>
        <time>2022-09-29T11:37:03Z</time>
      </trkpt>
      <trkpt lat="45.06888" lon="4.12859">
        <ele>1270.52</ele>
        <time>2022-09-29T11:37:06Z</time>
      </trkpt>
      <trkpt lat="45.06879" lon="4.12869">
        <ele>1271.96</ele>
        <time>2022-09-29T11:37:17Z</time>
      </trkpt>
      <trkpt lat="45.06854" lon="4.12885">
        <ele>1273.88</ele>
        <time>2022-09-29T11:37:38Z</time>
      </trkpt>
      <trkpt lat="45.06833" lon="4.12904">
        <ele>1277.73</ele>
        <time>2022-09-29T11:37:57Z</time>
      </trkpt>
      <trkpt lat="45.06815" lon="4.12926">
        <ele>1284.94</ele>
        <time>2022-09-29T11:38:18Z</time>
      </trkpt>
      <trkpt lat="45.06793" lon="4.12943">
        <ele>1288.78</ele>
        <time>2022-09-29T11:38:36Z</time>
      </trkpt>
      <trkpt lat="45.06771" lon="4.12975">
        <ele>1288.3</ele>
        <time>2022-09-29T11:38:57Z</time>
      </trkpt>
      <trkpt lat="45.06752" lon="4.13">
        <ele>1287.34</ele>
        <time>2022-09-29T11:39:17Z</time>
      </trkpt>
      <trkpt lat="45.06728" lon="4.13024">
        <ele>1288.3</ele>
        <time>2022-09-29T11:39:35Z</time>
      </trkpt>
      <trkpt lat="45.06709" lon="4.13037">
        <ele>1293.59</ele>
        <time>2022-09-29T11:39:54Z</time>
      </trkpt>
      <trkpt lat="45.06687" lon="4.13052">
        <ele>1292.63</ele>
        <time>2022-09-29T11:40:12Z</time>
      </trkpt>
      <trkpt lat="45.06676" lon="4.13059">
        <ele>1290.23</ele>
        <time>2022-09-29T11:40:24Z</time>
      </trkpt>
      <trkpt lat="45.06657" lon="4.13073">
        <ele>1290.71</ele>
        <time>2022-09-29T11:40:46Z</time>
      </trkpt>
      <trkpt lat="45.06628" lon="4.13087">
        <ele>1291.19</ele>
        <time>2022-09-29T11:41:07Z</time>
      </trkpt>
      <trkpt lat="45.06603" lon="4.13089">
        <ele>1289.27</ele>
        <time>2022-09-29T11:41:25Z</time>
      </trkpt>
      <trkpt lat="45.06575" lon="4.13101">
        <ele>1284.46</ele>
        <time>2022-09-29T11:41:49Z</time>
      </trkpt>
      <trkpt lat="45.06544" lon="4.13125">
        <ele>1282.54</ele>
        <time>2022-09-29T11:42:09Z</time>
      </trkpt>
      <trkpt lat="45.06536" lon="4.13134">
        <ele>1280.13</ele>
        <time>2022-09-29T11:42:27Z</time>
      </trkpt>
      <trkpt lat="45.06516" lon="4.13134">
        <ele>1281.09</ele>
        <time>2022-09-29T11:42:41Z</time>
      </trkpt>
      <trkpt lat="45.06498" lon="4.13146">
        <ele>1280.13</ele>
        <time>2022-09-29T11:43:00Z</time>
      </trkpt>
      <trkpt lat="45.06484" lon="4.1316">
        <ele>1277.25</ele>
        <time>2022-09-29T11:43:14Z</time>
      </trkpt>
      <trkpt lat="45.06482" lon="4.1316">
        <ele>1277.25</ele>
        <time>2022-09-29T11:43:15Z</time>
      </trkpt>
      <trkpt lat="45.06459" lon="4.13167">
        <ele>1276.77</ele>
        <time>2022-09-29T11:43:33Z</time>
      </trkpt>
      <trkpt lat="45.06435" lon="4.13174">
        <ele>1278.21</ele>
        <time>2022-09-29T11:43:51Z</time>
      </trkpt>
      <trkpt lat="45.06417" lon="4.13181">
        <ele>1277.73</ele>
        <time>2022-09-29T11:44:07Z</time>
      </trkpt>
      <trkpt lat="45.0641" lon="4.13183">
        <ele>1277.73</ele>
        <time>2022-09-29T11:44:22Z</time>
      </trkpt>
      <trkpt lat="45.06402" lon="4.13188">
        <ele>1277.73</ele>
        <time>2022-09-29T11:44:37Z</time>
      </trkpt>
      <trkpt lat="45.06383" lon="4.13195">
        <ele>1280.13</ele>
        <time>2022-09-29T11:44:52Z</time>
      </trkpt>
      <trkpt lat="45.06368" lon="4.13202">
        <ele>1281.57</ele>
        <time>2022-09-29T11:45:09Z</time>
      </trkpt>
      <trkpt lat="45.06362" lon="4.13205">
        <ele>1280.61</ele>
        <time>2022-09-29T11:45:25Z</time>
      </trkpt>
      <trkpt lat="45.06347" lon="4.13212">
        <ele>1282.54</ele>
        <time>2022-09-29T11:45:42Z</time>
      </trkpt>
      <trkpt lat="45.06329" lon="4.13222">
        <ele>1280.61</ele>
        <time>2022-09-29T11:45:55Z</time>
      </trkpt>
      <trkpt lat="45.06313" lon="4.13232">
        <ele>1282.54</ele>
        <time>2022-09-29T11:46:09Z</time>
      </trkpt>
      <trkpt lat="45.06298" lon="4.13238">
        <ele>1282.06</ele>
        <time>2022-09-29T11:46:24Z</time>
      </trkpt>
      <trkpt lat="45.06279" lon="4.13243">
        <ele>1279.65</ele>
        <time>2022-09-29T11:46:38Z</time>
      </trkpt>
      <trkpt lat="45.06271" lon="4.13248">
        <ele>1278.69</ele>
        <time>2022-09-29T11:46:46Z</time>
      </trkpt>
      <trkpt lat="45.06262" lon="4.13251">
        <ele>1281.57</ele>
        <time>2022-09-29T11:46:54Z</time>
      </trkpt>
      <trkpt lat="45.0624" lon="4.13265">
        <ele>1288.3</ele>
        <time>2022-09-29T11:47:12Z</time>
      </trkpt>
      <trkpt lat="45.06233" lon="4.13266">
        <ele>1290.71</ele>
        <time>2022-09-29T11:47:27Z</time>
      </trkpt>
      <trkpt lat="45.06218" lon="4.13287">
        <ele>1296.96</ele>
        <time>2022-09-29T11:47:49Z</time>
      </trkpt>
      <trkpt lat="45.06197" lon="4.13297">
        <ele>1298.4</ele>
        <time>2022-09-29T11:48:10Z</time>
      </trkpt>
      <trkpt lat="45.06172" lon="4.13305">
        <ele>1298.88</ele>
        <time>2022-09-29T11:48:29Z</time>
      </trkpt>
      <trkpt lat="45.06153" lon="4.13313">
        <ele>1300.32</ele>
        <time>2022-09-29T11:48:47Z</time>
      </trkpt>
      <trkpt lat="45.06138" lon="4.1332">
        <ele>1304.17</ele>
        <time>2022-09-29T11:49:09Z</time>
      </trkpt>
      <trkpt lat="45.06128" lon="4.13325">
        <ele>1305.61</ele>
        <time>2022-09-29T11:49:29Z</time>
      </trkpt>
      <trkpt lat="45.06106" lon="4.13336">
        <ele>1305.61</ele>
        <time>2022-09-29T11:49:46Z</time>
      </trkpt>
      <trkpt lat="45.06091" lon="4.13338">
        <ele>1303.69</ele>
        <time>2022-09-29T11:50:00Z</time>
      </trkpt>
      <trkpt lat="45.06069" lon="4.13348">
        <ele>1308.49</ele>
        <time>2022-09-29T11:50:16Z</time>
      </trkpt>
      <trkpt lat="45.0606" lon="4.1335">
        <ele>1308.49</ele>
        <time>2022-09-29T11:50:31Z</time>
      </trkpt>
      <trkpt lat="45.06056" lon="4.1333">
        <ele>1308.49</ele>
        <time>2022-09-29T11:50:48Z</time>
      </trkpt>
      <trkpt lat="45.06039" lon="4.13305">
        <ele>1312.34</ele>
        <time>2022-09-29T11:51:09Z</time>
      </trkpt>
      <trkpt lat="45.06021" lon="4.1329">
        <ele>1314.26</ele>
        <time>2022-09-29T11:51:28Z</time>
      </trkpt>
      <trkpt lat="45.06002" lon="4.13276">
        <ele>1314.74</ele>
        <time>2022-09-29T11:51:44Z</time>
      </trkpt>
      <trkpt lat="45.05981" lon="4.13259">
        <ele>1318.59</ele>
        <time>2022-09-29T11:52:04Z</time>
      </trkpt>
      <trkpt lat="45.05965" lon="4.13243">
        <ele>1321.47</ele>
        <time>2022-09-29T11:52:22Z</time>
      </trkpt>
      <trkpt lat="45.05941" lon="4.13229">
        <ele>1324.83</ele>
        <time>2022-09-29T11:52:41Z</time>
      </trkpt>
      <trkpt lat="45.05916" lon="4.13215">
        <ele>1328.2</ele>
        <time>2022-09-29T11:53:02Z</time>
      </trkpt>
      <trkpt lat="45.059" lon="4.13205">
        <ele>1333.49</ele>
        <time>2022-09-29T11:53:20Z</time>
      </trkpt>
      <trkpt lat="45.05872" lon="4.13203">
        <ele>1335.89</ele>
        <time>2022-09-29T11:53:41Z</time>
      </trkpt>
      <trkpt lat="45.05858" lon="4.13193">
        <ele>1337.33</ele>
        <time>2022-09-29T11:54:01Z</time>
      </trkpt>
      <trkpt lat="45.05844" lon="4.13183">
        <ele>1338.77</ele>
        <time>2022-09-29T11:54:18Z</time>
      </trkpt>
      <trkpt lat="45.05823" lon="4.1317">
        <ele>1343.58</ele>
        <time>2022-09-29T11:54:35Z</time>
      </trkpt>
      <trkpt lat="45.05814" lon="4.13164">
        <ele>1345.98</ele>
        <time>2022-09-29T11:54:53Z</time>
      </trkpt>
      <trkpt lat="45.05799" lon="4.13156">
        <ele>1347.91</ele>
        <time>2022-09-29T11:55:10Z</time>
      </trkpt>
      <trkpt lat="45.05793" lon="4.13141">
        <ele>1354.15</ele>
        <time>2022-09-29T11:55:27Z</time>
      </trkpt>
      <trkpt lat="45.05779" lon="4.13128">
        <ele>1356.08</ele>
        <time>2022-09-29T11:55:44Z</time>
      </trkpt>
      <trkpt lat="45.0577" lon="4.13117">
        <ele>1354.15</ele>
        <time>2022-09-29T11:55:52Z</time>
      </trkpt>
      <trkpt lat="45.05758" lon="4.13098">
        <ele>1351.75</ele>
        <time>2022-09-29T11:56:09Z</time>
      </trkpt>
      <trkpt lat="45.05754" lon="4.13093">
        <ele>1352.23</ele>
        <time>2022-09-29T11:56:13Z</time>
      </trkpt>
      <trkpt lat="45.0574" lon="4.13072">
        <ele>1351.27</ele>
        <time>2022-09-29T11:56:28Z</time>
      </trkpt>
      <trkpt lat="45.05734" lon="4.13066">
        <ele>1351.27</ele>
        <time>2022-09-29T11:56:34Z</time>
      </trkpt>
      <trkpt lat="45.05723" lon="4.13046">
        <ele>1349.35</ele>
        <time>2022-09-29T11:56:49Z</time>
      </trkpt>
      <trkpt lat="45.05712" lon="4.13027">
        <ele>1347.91</ele>
        <time>2022-09-29T11:57:02Z</time>
      </trkpt>
      <trkpt lat="45.05704" lon="4.1302">
        <ele>1347.43</ele>
        <time>2022-09-29T11:57:14Z</time>
      </trkpt>
      <trkpt lat="45.05706" lon="4.13021">
        <ele>1346.94</ele>
        <time>2022-09-29T11:57:39Z</time>
      </trkpt>
      <trkpt lat="45.05706" lon="4.13021">
        <ele>1347.91</ele>
        <time>2022-09-29T11:58:03Z</time>
      </trkpt>
      <trkpt lat="45.05704" lon="4.13021">
        <ele>1348.39</ele>
        <time>2022-09-29T11:58:25Z</time>
      </trkpt>
      <trkpt lat="45.05704" lon="4.13021">
        <ele>1348.39</ele>
        <time>2022-09-29T11:58:26Z</time>
      </trkpt>
      <trkpt lat="45.05702" lon="4.13024">
        <ele>1348.39</ele>
        <time>2022-09-29T11:58:28Z</time>
      </trkpt>
      <trkpt lat="45.05695" lon="4.13036">
        <ele>1348.87</ele>
        <time>2022-09-29T11:58:34Z</time>
      </trkpt>
      <trkpt lat="45.05691" lon="4.13064">
        <ele>1352.71</ele>
        <time>2022-09-29T11:58:51Z</time>
      </trkpt>
      <trkpt lat="45.05686" lon="4.13082">
        <ele>1355.6</ele>
        <time>2022-09-29T11:59:04Z</time>
      </trkpt>
      <trkpt lat="45.05682" lon="4.13101">
        <ele>1358.48</ele>
        <time>2022-09-29T11:59:18Z</time>
      </trkpt>
      <trkpt lat="45.05681" lon="4.13115">
        <ele>1361.84</ele>
        <time>2022-09-29T11:59:33Z</time>
      </trkpt>
      <trkpt lat="45.05674" lon="4.13134">
        <ele>1365.69</ele>
        <time>2022-09-29T11:59:53Z</time>
      </trkpt>
      <trkpt lat="45.05669" lon="4.13152">
        <ele>1367.61</ele>
        <time>2022-09-29T12:00:08Z</time>
      </trkpt>
      <trkpt lat="45.05661" lon="4.13167">
        <ele>1370.98</ele>
        <time>2022-09-29T12:00:24Z</time>
      </trkpt>
      <trkpt lat="45.0566" lon="4.13183">
        <ele>1376.75</ele>
        <time>2022-09-29T12:00:39Z</time>
      </trkpt>
      <trkpt lat="45.05658" lon="4.13187">
        <ele>1378.19</ele>
        <time>2022-09-29T12:00:42Z</time>
      </trkpt>
      <trkpt lat="45.05658" lon="4.13195">
        <ele>1380.59</ele>
        <time>2022-09-29T12:00:48Z</time>
      </trkpt>
      <trkpt lat="45.05659" lon="4.13201">
        <ele>1381.55</ele>
        <time>2022-09-29T12:00:52Z</time>
      </trkpt>
      <trkpt lat="45.0566" lon="4.13205">
        <ele>1382.51</ele>
        <time>2022-09-29T12:00:57Z</time>
      </trkpt>
      <trkpt lat="45.05666" lon="4.13214">
        <ele>1384.44</ele>
        <time>2022-09-29T12:01:07Z</time>
      </trkpt>
      <trkpt lat="45.05667" lon="4.13233">
        <ele>1385.88</ele>
        <time>2022-09-29T12:01:21Z</time>
      </trkpt>
      <trkpt lat="45.05668" lon="4.1324">
        <ele>1386.84</ele>
        <time>2022-09-29T12:01:27Z</time>
      </trkpt>
      <trkpt lat="45.05668" lon="4.13257">
        <ele>1388.76</ele>
        <time>2022-09-29T12:01:40Z</time>
      </trkpt>
      <trkpt lat="45.05668" lon="4.13259">
        <ele>1389.24</ele>
        <time>2022-09-29T12:01:47Z</time>
      </trkpt>
      <trkpt lat="45.05662" lon="4.1327">
        <ele>1391.17</ele>
        <time>2022-09-29T12:01:58Z</time>
      </trkpt>
      <trkpt lat="45.05668" lon="4.13277">
        <ele>1393.09</ele>
        <time>2022-09-29T12:02:07Z</time>
      </trkpt>
      <trkpt lat="45.05665" lon="4.13289">
        <ele>1392.13</ele>
        <time>2022-09-29T12:02:22Z</time>
      </trkpt>
      <trkpt lat="45.05664" lon="4.13291">
        <ele>1393.09</ele>
        <time>2022-09-29T12:02:29Z</time>
      </trkpt>
      <trkpt lat="45.0566" lon="4.13303">
        <ele>1395.49</ele>
        <time>2022-09-29T12:02:41Z</time>
      </trkpt>
      <trkpt lat="45.05661" lon="4.13305">
        <ele>1396.45</ele>
        <time>2022-09-29T12:02:57Z</time>
      </trkpt>
      <trkpt lat="45.05656" lon="4.13314">
        <ele>1398.37</ele>
        <time>2022-09-29T12:03:13Z</time>
      </trkpt>
      <trkpt lat="45.05645" lon="4.13319">
        <ele>1402.22</ele>
        <time>2022-09-29T12:03:29Z</time>
      </trkpt>
      <trkpt lat="45.05624" lon="4.13317">
        <ele>1403.18</ele>
        <time>2022-09-29T12:03:44Z</time>
      </trkpt>
      <trkpt lat="45.05608" lon="4.13324">
        <ele>1404.14</ele>
        <time>2022-09-29T12:04:01Z</time>
      </trkpt>
      <trkpt lat="45.05605" lon="4.13326">
        <ele>1405.1</ele>
        <time>2022-09-29T12:04:04Z</time>
      </trkpt>
      <trkpt lat="45.05596" lon="4.13322">
        <ele>1406.07</ele>
        <time>2022-09-29T12:04:17Z</time>
      </trkpt>
      <trkpt lat="45.05581" lon="4.13312">
        <ele>1404.62</ele>
        <time>2022-09-29T12:04:35Z</time>
      </trkpt>
      <trkpt lat="45.05573" lon="4.133">
        <ele>1404.14</ele>
        <time>2022-09-29T12:04:50Z</time>
      </trkpt>
      <trkpt lat="45.05563" lon="4.13293">
        <ele>1402.22</ele>
        <time>2022-09-29T12:05:05Z</time>
      </trkpt>
      <trkpt lat="45.05559" lon="4.1329">
        <ele>1401.74</ele>
        <time>2022-09-29T12:05:19Z</time>
      </trkpt>
      <trkpt lat="45.05555" lon="4.13283">
        <ele>1402.22</ele>
        <time>2022-09-29T12:05:31Z</time>
      </trkpt>
      <trkpt lat="45.05555" lon="4.13283">
        <ele>1402.22</ele>
        <time>2022-09-29T12:05:33Z</time>
      </trkpt>
      <trkpt lat="45.05556" lon="4.13283">
        <ele>1402.7</ele>
        <time>2022-09-29T12:05:49Z</time>
      </trkpt>
      <trkpt lat="45.05556" lon="4.13282">
        <ele>1402.22</ele>
        <time>2022-09-29T12:06:06Z</time>
      </trkpt>
      <trkpt lat="45.05555" lon="4.13279">
        <ele>1402.22</ele>
        <time>2022-09-29T12:06:21Z</time>
      </trkpt>
      <trkpt lat="45.05553" lon="4.13274">
        <ele>1402.22</ele>
        <time>2022-09-29T12:06:25Z</time>
      </trkpt>
      <trkpt lat="45.0555" lon="4.1326">
        <ele>1404.14</ele>
        <time>2022-09-29T12:06:35Z</time>
      </trkpt>
      <trkpt lat="45.0555" lon="4.13255">
        <ele>1405.1</ele>
        <time>2022-09-29T12:06:39Z</time>
      </trkpt>
      <trkpt lat="45.05547" lon="4.13247">
        <ele>1407.51</ele>
        <time>2022-09-29T12:06:53Z</time>
      </trkpt>
      <trkpt lat="45.05547" lon="4.13245">
        <ele>1407.99</ele>
        <time>2022-09-29T12:06:56Z</time>
      </trkpt>
      <trkpt lat="45.05553" lon="4.13219">
        <ele>1408.95</ele>
        <time>2022-09-29T12:07:12Z</time>
      </trkpt>
      <trkpt lat="45.05551" lon="4.13216">
        <ele>1408.47</ele>
        <time>2022-09-29T12:07:15Z</time>
      </trkpt>
      <trkpt lat="45.05548" lon="4.13205">
        <ele>1407.51</ele>
        <time>2022-09-29T12:07:36Z</time>
      </trkpt>
      <trkpt lat="45.05549" lon="4.13187">
        <ele>1406.55</ele>
        <time>2022-09-29T12:07:55Z</time>
      </trkpt>
      <trkpt lat="45.0554" lon="4.13183">
        <ele>1408.47</ele>
        <time>2022-09-29T12:08:15Z</time>
      </trkpt>
      <trkpt lat="45.05534" lon="4.13182">
        <ele>1409.43</ele>
        <time>2022-09-29T12:08:31Z</time>
      </trkpt>
      <trkpt lat="45.05524" lon="4.13179">
        <ele>1410.39</ele>
        <time>2022-09-29T12:08:42Z</time>
      </trkpt>
      <trkpt lat="45.0552" lon="4.13178">
        <ele>1410.87</ele>
        <time>2022-09-29T12:08:46Z</time>
      </trkpt>
      <trkpt lat="45.05522" lon="4.13164">
        <ele>1415.2</ele>
        <time>2022-09-29T12:09:02Z</time>
      </trkpt>
      <trkpt lat="45.05517" lon="4.1316">
        <ele>1419.04</ele>
        <time>2022-09-29T12:09:19Z</time>
      </trkpt>
      <trkpt lat="45.0551" lon="4.13164">
        <ele>1422.41</ele>
        <time>2022-09-29T12:09:36Z</time>
      </trkpt>
      <trkpt lat="45.05509" lon="4.13159">
        <ele>1424.33</ele>
        <time>2022-09-29T12:09:41Z</time>
      </trkpt>
      <trkpt lat="45.05511" lon="4.13149">
        <ele>1426.73</ele>
        <time>2022-09-29T12:09:53Z</time>
      </trkpt>
      <trkpt lat="45.05511" lon="4.13147">
        <ele>1427.21</ele>
        <time>2022-09-29T12:10:07Z</time>
      </trkpt>
      <trkpt lat="45.0551" lon="4.13148">
        <ele>1428.18</ele>
        <time>2022-09-29T12:10:32Z</time>
      </trkpt>
      <trkpt lat="45.05512" lon="4.13149">
        <ele>1427.7</ele>
        <time>2022-09-29T12:10:47Z</time>
      </trkpt>
      <trkpt lat="45.05511" lon="4.13144">
        <ele>1427.21</ele>
        <time>2022-09-29T12:11:01Z</time>
      </trkpt>
      <trkpt lat="45.05511" lon="4.13144">
        <ele>1427.7</ele>
        <time>2022-09-29T12:11:16Z</time>
      </trkpt>
      <trkpt lat="45.05511" lon="4.13143">
        <ele>1427.7</ele>
        <time>2022-09-29T12:11:35Z</time>
      </trkpt>
      <trkpt lat="45.05511" lon="4.13143">
        <ele>1427.7</ele>
        <time>2022-09-29T12:11:56Z</time>
      </trkpt>
      <trkpt lat="45.05511" lon="4.13143">
        <ele>1427.7</ele>
        <time>2022-09-29T12:12:29Z</time>
      </trkpt>
      <trkpt lat="45.05511" lon="4.13141">
        <ele>1427.21</ele>
        <time>2022-09-29T12:12:46Z</time>
      </trkpt>
      <trkpt lat="45.05511" lon="4.1314">
        <ele>1427.21</ele>
        <time>2022-09-29T12:13:03Z</time>
      </trkpt>
      <trkpt lat="45.0551" lon="4.13139">
        <ele>1427.21</ele>
        <time>2022-09-29T12:13:15Z</time>
      </trkpt>
      <trkpt lat="45.05508" lon="4.13133">
        <ele>1424.81</ele>
        <time>2022-09-29T12:13:33Z</time>
      </trkpt>
      <trkpt lat="45.05506" lon="4.13121">
        <ele>1422.41</ele>
        <time>2022-09-29T12:13:54Z</time>
      </trkpt>
      <trkpt lat="45.05505" lon="4.13118">
        <ele>1422.89</ele>
        <time>2022-09-29T12:14:15Z</time>
      </trkpt>
      <trkpt lat="45.05503" lon="4.13108">
        <ele>1422.89</ele>
        <time>2022-09-29T12:14:30Z</time>
      </trkpt>
      <trkpt lat="45.05496" lon="4.13099">
        <ele>1422.89</ele>
        <time>2022-09-29T12:14:48Z</time>
      </trkpt>
      <trkpt lat="45.05493" lon="4.13089">
        <ele>1423.85</ele>
        <time>2022-09-29T12:15:06Z</time>
      </trkpt>
      <trkpt lat="45.05487" lon="4.13065">
        <ele>1425.77</ele>
        <time>2022-09-29T12:15:28Z</time>
      </trkpt>
      <trkpt lat="45.05484" lon="4.13063">
        <ele>1427.7</ele>
        <time>2022-09-29T12:15:49Z</time>
      </trkpt>
      <trkpt lat="45.05481" lon="4.13052">
        <ele>1428.66</ele>
        <time>2022-09-29T12:16:07Z</time>
      </trkpt>
      <trkpt lat="45.0548" lon="4.13048">
        <ele>1428.66</ele>
        <time>2022-09-29T12:16:23Z</time>
      </trkpt>
      <trkpt lat="45.05479" lon="4.13047">
        <ele>1427.7</ele>
        <time>2022-09-29T12:16:49Z</time>
      </trkpt>
      <trkpt lat="45.05479" lon="4.13048">
        <ele>1426.73</ele>
        <time>2022-09-29T12:17:07Z</time>
      </trkpt>
      <trkpt lat="45.05478" lon="4.13048">
        <ele>1425.77</ele>
        <time>2022-09-29T12:17:26Z</time>
      </trkpt>
      <trkpt lat="45.05479" lon="4.13048">
        <ele>1426.25</ele>
        <time>2022-09-29T12:17:42Z</time>
      </trkpt>
      <trkpt lat="45.0548" lon="4.13064">
        <ele>1426.73</ele>
        <time>2022-09-29T12:18:02Z</time>
      </trkpt>
      <trkpt lat="45.05488" lon="4.13074">
        <ele>1427.21</ele>
        <time>2022-09-29T12:18:19Z</time>
      </trkpt>
      <trkpt lat="45.05489" lon="4.13094">
        <ele>1427.21</ele>
        <time>2022-09-29T12:18:38Z</time>
      </trkpt>
      <trkpt lat="45.055" lon="4.13101">
        <ele>1422.89</ele>
        <time>2022-09-29T12:18:58Z</time>
      </trkpt>
      <trkpt lat="45.05505" lon="4.13118">
        <ele>1419.04</ele>
        <time>2022-09-29T12:19:16Z</time>
      </trkpt>
      <trkpt lat="45.05499" lon="4.13129">
        <ele>1418.56</ele>
        <time>2022-09-29T12:19:39Z</time>
      </trkpt>
      <trkpt lat="45.05493" lon="4.13131">
        <ele>1417.6</ele>
        <time>2022-09-29T12:19:56Z</time>
      </trkpt>
      <trkpt lat="45.05488" lon="4.13143">
        <ele>1417.6</ele>
        <time>2022-09-29T12:20:13Z</time>
      </trkpt>
      <trkpt lat="45.05482" lon="4.1315">
        <ele>1418.56</ele>
        <time>2022-09-29T12:20:31Z</time>
      </trkpt>
      <trkpt lat="45.05477" lon="4.13157">
        <ele>1418.56</ele>
        <time>2022-09-29T12:20:49Z</time>
      </trkpt>
      <trkpt lat="45.05473" lon="4.1316">
        <ele>1417.12</ele>
        <time>2022-09-29T12:21:10Z</time>
      </trkpt>
      <trkpt lat="45.05473" lon="4.13167">
        <ele>1416.16</ele>
        <time>2022-09-29T12:21:26Z</time>
      </trkpt>
      <trkpt lat="45.05473" lon="4.13183">
        <ele>1415.2</ele>
        <time>2022-09-29T12:21:47Z</time>
      </trkpt>
      <trkpt lat="45.05477" lon="4.13194">
        <ele>1415.68</ele>
        <time>2022-09-29T12:22:07Z</time>
      </trkpt>
      <trkpt lat="45.05475" lon="4.13208">
        <ele>1415.68</ele>
        <time>2022-09-29T12:22:25Z</time>
      </trkpt>
      <trkpt lat="45.05483" lon="4.1322">
        <ele>1412.79</ele>
        <time>2022-09-29T12:22:43Z</time>
      </trkpt>
      <trkpt lat="45.05485" lon="4.1324">
        <ele>1409.43</ele>
        <time>2022-09-29T12:23:01Z</time>
      </trkpt>
      <trkpt lat="45.05485" lon="4.13253">
        <ele>1405.58</ele>
        <time>2022-09-29T12:23:24Z</time>
      </trkpt>
      <trkpt lat="45.05484" lon="4.13258">
        <ele>1399.34</ele>
        <time>2022-09-29T12:23:31Z</time>
      </trkpt>
      <trkpt lat="45.05479" lon="4.13265">
        <ele>1397.41</ele>
        <time>2022-09-29T12:23:40Z</time>
      </trkpt>
      <trkpt lat="45.05468" lon="4.13271">
        <ele>1394.53</ele>
        <time>2022-09-29T12:23:53Z</time>
      </trkpt>
      <trkpt lat="45.05456" lon="4.13284">
        <ele>1390.2</ele>
        <time>2022-09-29T12:24:09Z</time>
      </trkpt>
      <trkpt lat="45.05447" lon="4.13295">
        <ele>1385.4</ele>
        <time>2022-09-29T12:24:25Z</time>
      </trkpt>
      <trkpt lat="45.05439" lon="4.13306">
        <ele>1381.55</ele>
        <time>2022-09-29T12:24:41Z</time>
      </trkpt>
      <trkpt lat="45.05425" lon="4.13308">
        <ele>1379.63</ele>
        <time>2022-09-29T12:24:58Z</time>
      </trkpt>
      <trkpt lat="45.05405" lon="4.1331">
        <ele>1379.63</ele>
        <time>2022-09-29T12:25:15Z</time>
      </trkpt>
      <trkpt lat="45.05397" lon="4.13308">
        <ele>1378.67</ele>
        <time>2022-09-29T12:25:22Z</time>
      </trkpt>
      <trkpt lat="45.05392" lon="4.13306">
        <ele>1378.67</ele>
        <time>2022-09-29T12:25:26Z</time>
      </trkpt>
      <trkpt lat="45.0537" lon="4.13305">
        <ele>1375.3</ele>
        <time>2022-09-29T12:25:45Z</time>
      </trkpt>
      <trkpt lat="45.05352" lon="4.13296">
        <ele>1371.94</ele>
        <time>2022-09-29T12:26:02Z</time>
      </trkpt>
      <trkpt lat="45.05334" lon="4.13288">
        <ele>1370.5</ele>
        <time>2022-09-29T12:26:18Z</time>
      </trkpt>
      <trkpt lat="45.05319" lon="4.13282">
        <ele>1368.57</ele>
        <time>2022-09-29T12:26:37Z</time>
      </trkpt>
      <trkpt lat="45.053" lon="4.13279">
        <ele>1369.05</ele>
        <time>2022-09-29T12:26:55Z</time>
      </trkpt>
      <trkpt lat="45.05291" lon="4.1328">
        <ele>1369.05</ele>
        <time>2022-09-29T12:27:04Z</time>
      </trkpt>
      <trkpt lat="45.05275" lon="4.13281">
        <ele>1367.13</ele>
        <time>2022-09-29T12:27:20Z</time>
      </trkpt>
      <trkpt lat="45.05266" lon="4.13288">
        <ele>1366.17</ele>
        <time>2022-09-29T12:27:30Z</time>
      </trkpt>
      <trkpt lat="45.05248" lon="4.13311">
        <ele>1362.81</ele>
        <time>2022-09-29T12:27:52Z</time>
      </trkpt>
      <trkpt lat="45.05245" lon="4.13317">
        <ele>1362.81</ele>
        <time>2022-09-29T12:27:56Z</time>
      </trkpt>
      <trkpt lat="45.05234" lon="4.13338">
        <ele>1358.48</ele>
        <time>2022-09-29T12:28:13Z</time>
      </trkpt>
      <trkpt lat="45.05227" lon="4.13357">
        <ele>1357.04</ele>
        <time>2022-09-29T12:28:28Z</time>
      </trkpt>
      <trkpt lat="45.05223" lon="4.13375">
        <ele>1358</ele>
        <time>2022-09-29T12:28:42Z</time>
      </trkpt>
      <trkpt lat="45.05223" lon="4.13375">
        <ele>1358</ele>
        <time>2022-09-29T12:28:59Z</time>
      </trkpt>
      <trkpt lat="45.05221" lon="4.13374">
        <ele>1358</ele>
        <time>2022-09-29T12:29:13Z</time>
      </trkpt>
      <trkpt lat="45.05221" lon="4.13374">
        <ele>1358.48</ele>
        <time>2022-09-29T12:29:36Z</time>
      </trkpt>
      <trkpt lat="45.05222" lon="4.13377">
        <ele>1358.48</ele>
        <time>2022-09-29T12:29:53Z</time>
      </trkpt>
      <trkpt lat="45.05221" lon="4.13376">
        <ele>1358.48</ele>
        <time>2022-09-29T12:30:15Z</time>
      </trkpt>
      <trkpt lat="45.05221" lon="4.13376">
        <ele>1358.48</ele>
        <time>2022-09-29T12:30:33Z</time>
      </trkpt>
      <trkpt lat="45.0522" lon="4.13377">
        <ele>1358.96</ele>
        <time>2022-09-29T12:30:58Z</time>
      </trkpt>
      <trkpt lat="45.0522" lon="4.13382">
        <ele>1358.96</ele>
        <time>2022-09-29T12:31:20Z</time>
      </trkpt>
      <trkpt lat="45.05214" lon="4.13408">
        <ele>1361.84</ele>
        <time>2022-09-29T12:31:33Z</time>
      </trkpt>
      <trkpt lat="45.05208" lon="4.13412">
        <ele>1362.33</ele>
        <time>2022-09-29T12:31:37Z</time>
      </trkpt>
      <trkpt lat="45.05187" lon="4.13414">
        <ele>1360.4</ele>
        <time>2022-09-29T12:31:52Z</time>
      </trkpt>
      <trkpt lat="45.05184" lon="4.13416">
        <ele>1361.36</ele>
        <time>2022-09-29T12:31:58Z</time>
      </trkpt>
      <trkpt lat="45.05181" lon="4.1342">
        <ele>1361.36</ele>
        <time>2022-09-29T12:32:01Z</time>
      </trkpt>
      <trkpt lat="45.05175" lon="4.1342">
        <ele>1361.36</ele>
        <time>2022-09-29T12:32:06Z</time>
      </trkpt>
      <trkpt lat="45.05159" lon="4.13416">
        <ele>1358.48</ele>
        <time>2022-09-29T12:32:19Z</time>
      </trkpt>
      <trkpt lat="45.05144" lon="4.13412">
        <ele>1358.48</ele>
        <time>2022-09-29T12:32:34Z</time>
      </trkpt>
      <trkpt lat="45.05136" lon="4.13418">
        <ele>1359.44</ele>
        <time>2022-09-29T12:32:43Z</time>
      </trkpt>
      <trkpt lat="45.05112" lon="4.13432">
        <ele>1361.36</ele>
        <time>2022-09-29T12:33:02Z</time>
      </trkpt>
      <trkpt lat="45.05094" lon="4.13443">
        <ele>1361.84</ele>
        <time>2022-09-29T12:33:20Z</time>
      </trkpt>
      <trkpt lat="45.05084" lon="4.13454">
        <ele>1365.69</ele>
        <time>2022-09-29T12:33:36Z</time>
      </trkpt>
      <trkpt lat="45.05078" lon="4.1346">
        <ele>1364.73</ele>
        <time>2022-09-29T12:33:42Z</time>
      </trkpt>
      <trkpt lat="45.05059" lon="4.1347">
        <ele>1365.21</ele>
        <time>2022-09-29T12:33:59Z</time>
      </trkpt>
      <trkpt lat="45.05046" lon="4.13482">
        <ele>1366.17</ele>
        <time>2022-09-29T12:34:15Z</time>
      </trkpt>
      <trkpt lat="45.0503" lon="4.13494">
        <ele>1368.57</ele>
        <time>2022-09-29T12:34:32Z</time>
      </trkpt>
      <trkpt lat="45.05024" lon="4.1351">
        <ele>1374.34</ele>
        <time>2022-09-29T12:34:47Z</time>
      </trkpt>
      <trkpt lat="45.05017" lon="4.13531">
        <ele>1376.26</ele>
        <time>2022-09-29T12:35:02Z</time>
      </trkpt>
      <trkpt lat="45.05016" lon="4.13532">
        <ele>1376.75</ele>
        <time>2022-09-29T12:35:03Z</time>
      </trkpt>
      <trkpt lat="45.05016" lon="4.13537">
        <ele>1376.26</ele>
        <time>2022-09-29T12:35:07Z</time>
      </trkpt>
      <trkpt lat="45.05021" lon="4.13543">
        <ele>1374.34</ele>
        <time>2022-09-29T12:35:20Z</time>
      </trkpt>
      <trkpt lat="45.0502" lon="4.13551">
        <ele>1374.34</ele>
        <time>2022-09-29T12:35:31Z</time>
      </trkpt>
      <trkpt lat="45.05017" lon="4.13566">
        <ele>1376.75</ele>
        <time>2022-09-29T12:35:43Z</time>
      </trkpt>
      <trkpt lat="45.05015" lon="4.13568">
        <ele>1376.75</ele>
        <time>2022-09-29T12:35:45Z</time>
      </trkpt>
      <trkpt lat="45.05008" lon="4.13589">
        <ele>1377.71</ele>
        <time>2022-09-29T12:36:01Z</time>
      </trkpt>
      <trkpt lat="45.04995" lon="4.13604">
        <ele>1376.75</ele>
        <time>2022-09-29T12:36:21Z</time>
      </trkpt>
      <trkpt lat="45.04992" lon="4.13612">
        <ele>1374.34</ele>
        <time>2022-09-29T12:36:41Z</time>
      </trkpt>
      <trkpt lat="45.04989" lon="4.13644">
        <ele>1365.21</ele>
        <time>2022-09-29T12:37:01Z</time>
      </trkpt>
      <trkpt lat="45.0498" lon="4.13658">
        <ele>1354.15</ele>
        <time>2022-09-29T12:37:18Z</time>
      </trkpt>
      <trkpt lat="45.04969" lon="4.1368">
        <ele>1344.54</ele>
        <time>2022-09-29T12:37:37Z</time>
      </trkpt>
      <trkpt lat="45.04952" lon="4.13694">
        <ele>1337.33</ele>
        <time>2022-09-29T12:37:56Z</time>
      </trkpt>
      <trkpt lat="45.04933" lon="4.13698">
        <ele>1333.49</ele>
        <time>2022-09-29T12:38:17Z</time>
      </trkpt>
      <trkpt lat="45.04917" lon="4.13722">
        <ele>1332.04</ele>
        <time>2022-09-29T12:38:37Z</time>
      </trkpt>
      <trkpt lat="45.04901" lon="4.13738">
        <ele>1327.24</ele>
        <time>2022-09-29T12:38:59Z</time>
      </trkpt>
      <trkpt lat="45.04902" lon="4.13748">
        <ele>1330.12</ele>
        <time>2022-09-29T12:39:02Z</time>
      </trkpt>
      <trkpt lat="45.049" lon="4.13752">
        <ele>1332.04</ele>
        <time>2022-09-29T12:39:04Z</time>
      </trkpt>
      <trkpt lat="45.04892" lon="4.13766">
        <ele>1335.41</ele>
        <time>2022-09-29T12:39:17Z</time>
      </trkpt>
      <trkpt lat="45.04888" lon="4.13781">
        <ele>1334.45</ele>
        <time>2022-09-29T12:39:28Z</time>
      </trkpt>
      <trkpt lat="45.04878" lon="4.13804">
        <ele>1333.49</ele>
        <time>2022-09-29T12:39:45Z</time>
      </trkpt>
      <trkpt lat="45.04873" lon="4.13815">
        <ele>1333.01</ele>
        <time>2022-09-29T12:39:52Z</time>
      </trkpt>
      <trkpt lat="45.04871" lon="4.13822">
        <ele>1333.01</ele>
        <time>2022-09-29T12:39:56Z</time>
      </trkpt>
      <trkpt lat="45.0486" lon="4.13847">
        <ele>1331.56</ele>
        <time>2022-09-29T12:40:16Z</time>
      </trkpt>
      <trkpt lat="45.04858" lon="4.13865">
        <ele>1329.64</ele>
        <time>2022-09-29T12:40:36Z</time>
      </trkpt>
      <trkpt lat="45.04853" lon="4.13885">
        <ele>1326.28</ele>
        <time>2022-09-29T12:40:45Z</time>
      </trkpt>
      <trkpt lat="45.04848" lon="4.13897">
        <ele>1327.72</ele>
        <time>2022-09-29T12:40:49Z</time>
      </trkpt>
      <trkpt lat="45.04836" lon="4.13909">
        <ele>1329.64</ele>
        <time>2022-09-29T12:41:02Z</time>
      </trkpt>
      <trkpt lat="45.04826" lon="4.13923">
        <ele>1329.64</ele>
        <time>2022-09-29T12:41:17Z</time>
      </trkpt>
      <trkpt lat="45.04815" lon="4.13929">
        <ele>1329.16</ele>
        <time>2022-09-29T12:41:35Z</time>
      </trkpt>
      <trkpt lat="45.04794" lon="4.13954">
        <ele>1325.31</ele>
        <time>2022-09-29T12:41:56Z</time>
      </trkpt>
      <trkpt lat="45.04781" lon="4.1398">
        <ele>1325.8</ele>
        <time>2022-09-29T12:42:19Z</time>
      </trkpt>
      <trkpt lat="45.04771" lon="4.13996">
        <ele>1332.04</ele>
        <time>2022-09-29T12:42:32Z</time>
      </trkpt>
      <trkpt lat="45.0477" lon="4.13999">
        <ele>1332.52</ele>
        <time>2022-09-29T12:42:34Z</time>
      </trkpt>
      <trkpt lat="45.0476" lon="4.14012">
        <ele>1333.97</ele>
        <time>2022-09-29T12:42:49Z</time>
      </trkpt>
      <trkpt lat="45.04758" lon="4.1401">
        <ele>1333.97</ele>
        <time>2022-09-29T12:42:51Z</time>
      </trkpt>
      <trkpt lat="45.04755" lon="4.14007">
        <ele>1334.45</ele>
        <time>2022-09-29T12:42:56Z</time>
      </trkpt>
      <trkpt lat="45.04752" lon="4.13985">
        <ele>1335.89</ele>
        <time>2022-09-29T12:43:12Z</time>
      </trkpt>
      <trkpt lat="45.04743" lon="4.13967">
        <ele>1337.81</ele>
        <time>2022-09-29T12:43:31Z</time>
      </trkpt>
      <trkpt lat="45.04737" lon="4.1395">
        <ele>1339.73</ele>
        <time>2022-09-29T12:43:45Z</time>
      </trkpt>
      <trkpt lat="45.04739" lon="4.13966">
        <ele>1339.25</ele>
        <time>2022-09-29T12:43:54Z</time>
      </trkpt>
      <trkpt lat="45.04723" lon="4.13971">
        <ele>1335.41</ele>
        <time>2022-09-29T12:44:09Z</time>
      </trkpt>
      <trkpt lat="45.04705" lon="4.13975">
        <ele>1334.45</ele>
        <time>2022-09-29T12:44:24Z</time>
      </trkpt>
      <trkpt lat="45.04697" lon="4.13982">
        <ele>1334.93</ele>
        <time>2022-09-29T12:44:34Z</time>
      </trkpt>
      <trkpt lat="45.04682" lon="4.13993">
        <ele>1335.41</ele>
        <time>2022-09-29T12:44:46Z</time>
      </trkpt>
      <trkpt lat="45.04669" lon="4.14">
        <ele>1336.37</ele>
        <time>2022-09-29T12:44:58Z</time>
      </trkpt>
      <trkpt lat="45.04657" lon="4.14009">
        <ele>1336.37</ele>
        <time>2022-09-29T12:45:14Z</time>
      </trkpt>
      <trkpt lat="45.04647" lon="4.14005">
        <ele>1335.89</ele>
        <time>2022-09-29T12:45:31Z</time>
      </trkpt>
      <trkpt lat="45.04628" lon="4.14005">
        <ele>1339.73</ele>
        <time>2022-09-29T12:45:46Z</time>
      </trkpt>
      <trkpt lat="45.04612" lon="4.14002">
        <ele>1341.18</ele>
        <time>2022-09-29T12:46:01Z</time>
      </trkpt>
      <trkpt lat="45.04588" lon="4.14003">
        <ele>1341.18</ele>
        <time>2022-09-29T12:46:20Z</time>
      </trkpt>
      <trkpt lat="45.04569" lon="4.14">
        <ele>1339.25</ele>
        <time>2022-09-29T12:46:35Z</time>
      </trkpt>
      <trkpt lat="45.04545" lon="4.14">
        <ele>1340.22</ele>
        <time>2022-09-29T12:46:52Z</time>
      </trkpt>
      <trkpt lat="45.04523" lon="4.13996">
        <ele>1340.7</ele>
        <time>2022-09-29T12:47:09Z</time>
      </trkpt>
      <trkpt lat="45.04503" lon="4.13993">
        <ele>1340.22</ele>
        <time>2022-09-29T12:47:25Z</time>
      </trkpt>
      <trkpt lat="45.04482" lon="4.13992">
        <ele>1338.29</ele>
        <time>2022-09-29T12:47:42Z</time>
      </trkpt>
      <trkpt lat="45.04476" lon="4.1399">
        <ele>1338.29</ele>
        <time>2022-09-29T12:47:47Z</time>
      </trkpt>
      <trkpt lat="45.04471" lon="4.13992">
        <ele>1338.29</ele>
        <time>2022-09-29T12:48:01Z</time>
      </trkpt>
      <trkpt lat="45.04469" lon="4.13993">
        <ele>1338.29</ele>
        <time>2022-09-29T12:48:03Z</time>
      </trkpt>
      <trkpt lat="45.04461" lon="4.13991">
        <ele>1338.77</ele>
        <time>2022-09-29T12:48:08Z</time>
      </trkpt>
      <trkpt lat="45.04448" lon="4.13987">
        <ele>1340.7</ele>
        <time>2022-09-29T12:48:15Z</time>
      </trkpt>
      <trkpt lat="45.04416" lon="4.13991">
        <ele>1340.22</ele>
        <time>2022-09-29T12:48:38Z</time>
      </trkpt>
      <trkpt lat="45.04403" lon="4.14002">
        <ele>1340.22</ele>
        <time>2022-09-29T12:48:50Z</time>
      </trkpt>
      <trkpt lat="45.04384" lon="4.14008">
        <ele>1340.22</ele>
        <time>2022-09-29T12:49:04Z</time>
      </trkpt>
      <trkpt lat="45.04366" lon="4.14012">
        <ele>1342.14</ele>
        <time>2022-09-29T12:49:18Z</time>
      </trkpt>
      <trkpt lat="45.0435" lon="4.14016">
        <ele>1344.06</ele>
        <time>2022-09-29T12:49:32Z</time>
      </trkpt>
      <trkpt lat="45.04337" lon="4.14005">
        <ele>1346.46</ele>
        <time>2022-09-29T12:49:49Z</time>
      </trkpt>
      <trkpt lat="45.04334" lon="4.14">
        <ele>1347.43</ele>
        <time>2022-09-29T12:49:53Z</time>
      </trkpt>
      <trkpt lat="45.04315" lon="4.13986">
        <ele>1349.83</ele>
        <time>2022-09-29T12:50:09Z</time>
      </trkpt>
      <trkpt lat="45.04298" lon="4.13969">
        <ele>1352.23</ele>
        <time>2022-09-29T12:50:26Z</time>
      </trkpt>
      <trkpt lat="45.04278" lon="4.13951">
        <ele>1351.75</ele>
        <time>2022-09-29T12:50:41Z</time>
      </trkpt>
      <trkpt lat="45.04264" lon="4.13931">
        <ele>1351.75</ele>
        <time>2022-09-29T12:50:57Z</time>
      </trkpt>
      <trkpt lat="45.04251" lon="4.13913">
        <ele>1350.31</ele>
        <time>2022-09-29T12:51:13Z</time>
      </trkpt>
      <trkpt lat="45.04239" lon="4.13899">
        <ele>1349.83</ele>
        <time>2022-09-29T12:51:24Z</time>
      </trkpt>
      <trkpt lat="45.04235" lon="4.13874">
        <ele>1347.43</ele>
        <time>2022-09-29T12:51:40Z</time>
      </trkpt>
      <trkpt lat="45.04226" lon="4.1386">
        <ele>1342.14</ele>
        <time>2022-09-29T12:51:54Z</time>
      </trkpt>
      <trkpt lat="45.0422" lon="4.13828">
        <ele>1339.73</ele>
        <time>2022-09-29T12:52:13Z</time>
      </trkpt>
      <trkpt lat="45.04217" lon="4.13785">
        <ele>1337.81</ele>
        <time>2022-09-29T12:52:33Z</time>
      </trkpt>
      <trkpt lat="45.04218" lon="4.13775">
        <ele>1337.33</ele>
        <time>2022-09-29T12:52:38Z</time>
      </trkpt>
      <trkpt lat="45.04225" lon="4.13742">
        <ele>1335.89</ele>
        <time>2022-09-29T12:52:57Z</time>
      </trkpt>
      <trkpt lat="45.04222" lon="4.13705">
        <ele>1334.93</ele>
        <time>2022-09-29T12:53:15Z</time>
      </trkpt>
      <trkpt lat="45.04219" lon="4.13701">
        <ele>1334.45</ele>
        <time>2022-09-29T12:53:17Z</time>
      </trkpt>
      <trkpt lat="45.0422" lon="4.13691">
        <ele>1332.04</ele>
        <time>2022-09-29T12:53:24Z</time>
      </trkpt>
      <trkpt lat="45.04234" lon="4.13659">
        <ele>1325.8</ele>
        <time>2022-09-29T12:53:43Z</time>
      </trkpt>
      <trkpt lat="45.04243" lon="4.13634">
        <ele>1320.99</ele>
        <time>2022-09-29T12:53:59Z</time>
      </trkpt>
      <trkpt lat="45.04246" lon="4.13628">
        <ele>1320.99</ele>
        <time>2022-09-29T12:54:03Z</time>
      </trkpt>
      <trkpt lat="45.04259" lon="4.13601">
        <ele>1321.47</ele>
        <time>2022-09-29T12:54:23Z</time>
      </trkpt>
      <trkpt lat="45.04269" lon="4.13578">
        <ele>1321.95</ele>
        <time>2022-09-29T12:54:41Z</time>
      </trkpt>
      <trkpt lat="45.04275" lon="4.13557">
        <ele>1322.91</ele>
        <time>2022-09-29T12:54:56Z</time>
      </trkpt>
      <trkpt lat="45.04277" lon="4.13532">
        <ele>1323.39</ele>
        <time>2022-09-29T12:55:12Z</time>
      </trkpt>
      <trkpt lat="45.04278" lon="4.13503">
        <ele>1324.35</ele>
        <time>2022-09-29T12:55:30Z</time>
      </trkpt>
      <trkpt lat="45.04282" lon="4.13476">
        <ele>1324.35</ele>
        <time>2022-09-29T12:55:48Z</time>
      </trkpt>
      <trkpt lat="45.0428" lon="4.13444">
        <ele>1324.83</ele>
        <time>2022-09-29T12:56:07Z</time>
      </trkpt>
      <trkpt lat="45.04273" lon="4.13436">
        <ele>1324.83</ele>
        <time>2022-09-29T12:56:13Z</time>
      </trkpt>
      <trkpt lat="45.04266" lon="4.13417">
        <ele>1326.76</ele>
        <time>2022-09-29T12:56:29Z</time>
      </trkpt>
      <trkpt lat="45.04258" lon="4.13405">
        <ele>1325.8</ele>
        <time>2022-09-29T12:56:47Z</time>
      </trkpt>
      <trkpt lat="45.04244" lon="4.13368">
        <ele>1321.95</ele>
        <time>2022-09-29T12:57:07Z</time>
      </trkpt>
      <trkpt lat="45.04237" lon="4.13348">
        <ele>1324.35</ele>
        <time>2022-09-29T12:57:24Z</time>
      </trkpt>
      <trkpt lat="45.04224" lon="4.13323">
        <ele>1329.64</ele>
        <time>2022-09-29T12:57:43Z</time>
      </trkpt>
      <trkpt lat="45.04207" lon="4.13296">
        <ele>1332.52</ele>
        <time>2022-09-29T12:58:00Z</time>
      </trkpt>
      <trkpt lat="45.04202" lon="4.13268">
        <ele>1331.08</ele>
        <time>2022-09-29T12:58:22Z</time>
      </trkpt>
      <trkpt lat="45.04194" lon="4.13255">
        <ele>1333.01</ele>
        <time>2022-09-29T12:58:40Z</time>
      </trkpt>
      <trkpt lat="45.04187" lon="4.13218">
        <ele>1339.25</ele>
        <time>2022-09-29T12:59:00Z</time>
      </trkpt>
      <trkpt lat="45.04198" lon="4.1319">
        <ele>1335.89</ele>
        <time>2022-09-29T12:59:15Z</time>
      </trkpt>
      <trkpt lat="45.04196" lon="4.13164">
        <ele>1339.73</ele>
        <time>2022-09-29T12:59:29Z</time>
      </trkpt>
      <trkpt lat="45.0419" lon="4.13133">
        <ele>1334.45</ele>
        <time>2022-09-29T12:59:48Z</time>
      </trkpt>
      <trkpt lat="45.04193" lon="4.1311">
        <ele>1332.04</ele>
        <time>2022-09-29T13:00:01Z</time>
      </trkpt>
      <trkpt lat="45.04201" lon="4.13086">
        <ele>1332.04</ele>
        <time>2022-09-29T13:00:15Z</time>
      </trkpt>
      <trkpt lat="45.04193" lon="4.13064">
        <ele>1330.6</ele>
        <time>2022-09-29T13:00:34Z</time>
      </trkpt>
      <trkpt lat="45.04186" lon="4.13075">
        <ele>1327.24</ele>
        <time>2022-09-29T13:00:49Z</time>
      </trkpt>
      <trkpt lat="45.04185" lon="4.13075">
        <ele>1327.24</ele>
        <time>2022-09-29T13:00:50Z</time>
      </trkpt>
      <trkpt lat="45.04175" lon="4.13062">
        <ele>1326.28</ele>
        <time>2022-09-29T13:01:04Z</time>
      </trkpt>
      <trkpt lat="45.04166" lon="4.13046">
        <ele>1320.99</ele>
        <time>2022-09-29T13:01:19Z</time>
      </trkpt>
      <trkpt lat="45.04157" lon="4.13024">
        <ele>1322.43</ele>
        <time>2022-09-29T13:01:36Z</time>
      </trkpt>
      <trkpt lat="45.04149" lon="4.13019">
        <ele>1322.43</ele>
        <time>2022-09-29T13:01:42Z</time>
      </trkpt>
      <trkpt lat="45.04123" lon="4.13009">
        <ele>1322.43</ele>
        <time>2022-09-29T13:02:00Z</time>
      </trkpt>
      <trkpt lat="45.04105" lon="4.13">
        <ele>1318.1</ele>
        <time>2022-09-29T13:02:23Z</time>
      </trkpt>
      <trkpt lat="45.04082" lon="4.12994">
        <ele>1314.26</ele>
        <time>2022-09-29T13:02:41Z</time>
      </trkpt>
      <trkpt lat="45.04063" lon="4.12987">
        <ele>1311.38</ele>
        <time>2022-09-29T13:03:00Z</time>
      </trkpt>
      <trkpt lat="45.04044" lon="4.12979">
        <ele>1305.13</ele>
        <time>2022-09-29T13:03:18Z</time>
      </trkpt>
      <trkpt lat="45.04033" lon="4.1298">
        <ele>1303.2</ele>
        <time>2022-09-29T13:03:35Z</time>
      </trkpt>
      <trkpt lat="45.04016" lon="4.12989">
        <ele>1302.24</ele>
        <time>2022-09-29T13:03:53Z</time>
      </trkpt>
      <trkpt lat="45.03997" lon="4.12991">
        <ele>1299.36</ele>
        <time>2022-09-29T13:04:11Z</time>
      </trkpt>
      <trkpt lat="45.03978" lon="4.12995">
        <ele>1290.71</ele>
        <time>2022-09-29T13:04:27Z</time>
      </trkpt>
      <trkpt lat="45.03971" lon="4.12993">
        <ele>1288.78</ele>
        <time>2022-09-29T13:04:34Z</time>
      </trkpt>
      <trkpt lat="45.03947" lon="4.12996">
        <ele>1282.54</ele>
        <time>2022-09-29T13:04:53Z</time>
      </trkpt>
      <trkpt lat="45.03934" lon="4.13002">
        <ele>1275.81</ele>
        <time>2022-09-29T13:05:14Z</time>
      </trkpt>
      <trkpt lat="45.0392" lon="4.12994">
        <ele>1274.85</ele>
        <time>2022-09-29T13:05:32Z</time>
      </trkpt>
      <trkpt lat="45.0391" lon="4.12996">
        <ele>1276.29</ele>
        <time>2022-09-29T13:05:48Z</time>
      </trkpt>
      <trkpt lat="45.03891" lon="4.13">
        <ele>1273.4</ele>
        <time>2022-09-29T13:06:08Z</time>
      </trkpt>
      <trkpt lat="45.03896" lon="4.12985">
        <ele>1273.88</ele>
        <time>2022-09-29T13:06:23Z</time>
      </trkpt>
      <trkpt lat="45.03903" lon="4.12963">
        <ele>1270.52</ele>
        <time>2022-09-29T13:06:44Z</time>
      </trkpt>
      <trkpt lat="45.0389" lon="4.12961">
        <ele>1267.64</ele>
        <time>2022-09-29T13:06:59Z</time>
      </trkpt>
      <trkpt lat="45.03876" lon="4.12968">
        <ele>1262.83</ele>
        <time>2022-09-29T13:07:22Z</time>
      </trkpt>
      <trkpt lat="45.03877" lon="4.12963">
        <ele>1261.39</ele>
        <time>2022-09-29T13:07:29Z</time>
      </trkpt>
      <trkpt lat="45.03883" lon="4.12966">
        <ele>1261.87</ele>
        <time>2022-09-29T13:07:54Z</time>
      </trkpt>
      <trkpt lat="45.03896" lon="4.12953">
        <ele>1265.71</ele>
        <time>2022-09-29T13:08:05Z</time>
      </trkpt>
      <trkpt lat="45.03897" lon="4.12906">
        <ele>1281.57</ele>
        <time>2022-09-29T13:08:25Z</time>
      </trkpt>
      <trkpt lat="45.03905" lon="4.1287">
        <ele>1287.34</ele>
        <time>2022-09-29T13:08:42Z</time>
      </trkpt>
      <trkpt lat="45.03896" lon="4.1286">
        <ele>1290.23</ele>
        <time>2022-09-29T13:08:48Z</time>
      </trkpt>
      <trkpt lat="45.0387" lon="4.12853">
        <ele>1287.82</ele>
        <time>2022-09-29T13:09:04Z</time>
      </trkpt>
      <trkpt lat="45.03867" lon="4.12837">
        <ele>1290.23</ele>
        <time>2022-09-29T13:09:19Z</time>
      </trkpt>
      <trkpt lat="45.03863" lon="4.12818">
        <ele>1290.71</ele>
        <time>2022-09-29T13:09:30Z</time>
      </trkpt>
      <trkpt lat="45.03854" lon="4.12794">
        <ele>1289.75</ele>
        <time>2022-09-29T13:09:47Z</time>
      </trkpt>
      <trkpt lat="45.0385" lon="4.12765">
        <ele>1292.15</ele>
        <time>2022-09-29T13:10:04Z</time>
      </trkpt>
      <trkpt lat="45.03847" lon="4.1276">
        <ele>1292.63</ele>
        <time>2022-09-29T13:10:08Z</time>
      </trkpt>
      <trkpt lat="45.03846" lon="4.12733">
        <ele>1294.07</ele>
        <time>2022-09-29T13:10:23Z</time>
      </trkpt>
      <trkpt lat="45.03845" lon="4.1271">
        <ele>1295.03</ele>
        <time>2022-09-29T13:10:39Z</time>
      </trkpt>
      <trkpt lat="45.03845" lon="4.12701">
        <ele>1295.99</ele>
        <time>2022-09-29T13:10:46Z</time>
      </trkpt>
      <trkpt lat="45.03844" lon="4.12688">
        <ele>1296.48</ele>
        <time>2022-09-29T13:10:53Z</time>
      </trkpt>
      <trkpt lat="45.03842" lon="4.12655">
        <ele>1297.44</ele>
        <time>2022-09-29T13:11:09Z</time>
      </trkpt>
      <trkpt lat="45.03839" lon="4.12625">
        <ele>1297.44</ele>
        <time>2022-09-29T13:11:25Z</time>
      </trkpt>
      <trkpt lat="45.03837" lon="4.12621">
        <ele>1295.51</ele>
        <time>2022-09-29T13:11:28Z</time>
      </trkpt>
      <trkpt lat="45.03824" lon="4.12594">
        <ele>1289.27</ele>
        <time>2022-09-29T13:11:44Z</time>
      </trkpt>
      <trkpt lat="45.03811" lon="4.12574">
        <ele>1281.57</ele>
        <time>2022-09-29T13:12:00Z</time>
      </trkpt>
      <trkpt lat="45.0381" lon="4.12576">
        <ele>1282.06</ele>
        <time>2022-09-29T13:12:15Z</time>
      </trkpt>
      <trkpt lat="45.03803" lon="4.1256">
        <ele>1286.38</ele>
        <time>2022-09-29T13:12:30Z</time>
      </trkpt>
      <trkpt lat="45.03799" lon="4.12554">
        <ele>1285.42</ele>
        <time>2022-09-29T13:12:46Z</time>
      </trkpt>
      <trkpt lat="45.03795" lon="4.12549">
        <ele>1284.46</ele>
        <time>2022-09-29T13:12:50Z</time>
      </trkpt>
      <trkpt lat="45.03782" lon="4.12525">
        <ele>1283.5</ele>
        <time>2022-09-29T13:13:05Z</time>
      </trkpt>
      <trkpt lat="45.03778" lon="4.12513">
        <ele>1283.5</ele>
        <time>2022-09-29T13:13:13Z</time>
      </trkpt>
      <trkpt lat="45.03776" lon="4.12499">
        <ele>1281.57</ele>
        <time>2022-09-29T13:13:21Z</time>
      </trkpt>
      <trkpt lat="45.03763" lon="4.12476">
        <ele>1282.06</ele>
        <time>2022-09-29T13:13:39Z</time>
      </trkpt>
      <trkpt lat="45.03753" lon="4.12466">
        <ele>1284.46</ele>
        <time>2022-09-29T13:13:48Z</time>
      </trkpt>
      <trkpt lat="45.03733" lon="4.12451">
        <ele>1287.82</ele>
        <time>2022-09-29T13:14:04Z</time>
      </trkpt>
      <trkpt lat="45.03721" lon="4.12439">
        <ele>1286.86</ele>
        <time>2022-09-29T13:14:20Z</time>
      </trkpt>
      <trkpt lat="45.03707" lon="4.1242">
        <ele>1287.34</ele>
        <time>2022-09-29T13:14:35Z</time>
      </trkpt>
      <trkpt lat="45.03696" lon="4.12406">
        <ele>1288.78</ele>
        <time>2022-09-29T13:14:52Z</time>
      </trkpt>
      <trkpt lat="45.03693" lon="4.12405">
        <ele>1287.82</ele>
        <time>2022-09-29T13:14:54Z</time>
      </trkpt>
      <trkpt lat="45.03683" lon="4.12402">
        <ele>1285.42</ele>
        <time>2022-09-29T13:15:02Z</time>
      </trkpt>
      <trkpt lat="45.03664" lon="4.12403">
        <ele>1279.65</ele>
        <time>2022-09-29T13:15:19Z</time>
      </trkpt>
      <trkpt lat="45.03641" lon="4.12392">
        <ele>1271.48</ele>
        <time>2022-09-29T13:15:39Z</time>
      </trkpt>
      <trkpt lat="45.03616" lon="4.12384">
        <ele>1267.64</ele>
        <time>2022-09-29T13:15:58Z</time>
      </trkpt>
      <trkpt lat="45.03609" lon="4.12388">
        <ele>1266.67</ele>
        <time>2022-09-29T13:16:04Z</time>
      </trkpt>
      <trkpt lat="45.03585" lon="4.12377">
        <ele>1260.43</ele>
        <time>2022-09-29T13:16:22Z</time>
      </trkpt>
      <trkpt lat="45.03584" lon="4.12375">
        <ele>1261.39</ele>
        <time>2022-09-29T13:16:24Z</time>
      </trkpt>
      <trkpt lat="45.0357" lon="4.12359">
        <ele>1264.75</ele>
        <time>2022-09-29T13:16:40Z</time>
      </trkpt>
      <trkpt lat="45.03558" lon="4.12356">
        <ele>1264.27</ele>
        <time>2022-09-29T13:16:49Z</time>
      </trkpt>
      <trkpt lat="45.03548" lon="4.12347">
        <ele>1263.31</ele>
        <time>2022-09-29T13:16:58Z</time>
      </trkpt>
      <trkpt lat="45.03536" lon="4.12323">
        <ele>1261.87</ele>
        <time>2022-09-29T13:17:16Z</time>
      </trkpt>
      <trkpt lat="45.03533" lon="4.12315">
        <ele>1260.91</ele>
        <time>2022-09-29T13:17:20Z</time>
      </trkpt>
      <trkpt lat="45.03512" lon="4.12287">
        <ele>1257.06</ele>
        <time>2022-09-29T13:17:42Z</time>
      </trkpt>
      <trkpt lat="45.03491" lon="4.12263">
        <ele>1251.77</ele>
        <time>2022-09-29T13:18:01Z</time>
      </trkpt>
      <trkpt lat="45.0348" lon="4.12248">
        <ele>1249.85</ele>
        <time>2022-09-29T13:18:14Z</time>
      </trkpt>
      <trkpt lat="45.03459" lon="4.12243">
        <ele>1241.68</ele>
        <time>2022-09-29T13:18:30Z</time>
      </trkpt>
      <trkpt lat="45.03448" lon="4.12241">
        <ele>1238.8</ele>
        <time>2022-09-29T13:18:39Z</time>
      </trkpt>
      <trkpt lat="45.03434" lon="4.12239">
        <ele>1235.91</ele>
        <time>2022-09-29T13:18:51Z</time>
      </trkpt>
      <trkpt lat="45.03419" lon="4.12235">
        <ele>1230.62</ele>
        <time>2022-09-29T13:19:04Z</time>
      </trkpt>
      <trkpt lat="45.03399" lon="4.1223">
        <ele>1224.86</ele>
        <time>2022-09-29T13:19:21Z</time>
      </trkpt>
      <trkpt lat="45.0338" lon="4.12219">
        <ele>1223.9</ele>
        <time>2022-09-29T13:19:37Z</time>
      </trkpt>
      <trkpt lat="45.03369" lon="4.122">
        <ele>1222.93</ele>
        <time>2022-09-29T13:19:51Z</time>
      </trkpt>
      <trkpt lat="45.03363" lon="4.12181">
        <ele>1221.97</ele>
        <time>2022-09-29T13:20:02Z</time>
      </trkpt>
      <trkpt lat="45.03349" lon="4.12157">
        <ele>1218.13</ele>
        <time>2022-09-29T13:20:19Z</time>
      </trkpt>
      <trkpt lat="45.03332" lon="4.12138">
        <ele>1220.05</ele>
        <time>2022-09-29T13:20:34Z</time>
      </trkpt>
      <trkpt lat="45.03328" lon="4.1213">
        <ele>1221.01</ele>
        <time>2022-09-29T13:20:39Z</time>
      </trkpt>
      <trkpt lat="45.0332" lon="4.12121">
        <ele>1222.45</ele>
        <time>2022-09-29T13:20:47Z</time>
      </trkpt>
      <trkpt lat="45.03314" lon="4.12105">
        <ele>1223.42</ele>
        <time>2022-09-29T13:21:03Z</time>
      </trkpt>
      <trkpt lat="45.03312" lon="4.12092">
        <ele>1224.86</ele>
        <time>2022-09-29T13:21:16Z</time>
      </trkpt>
      <trkpt lat="45.03305" lon="4.12068">
        <ele>1226.78</ele>
        <time>2022-09-29T13:21:31Z</time>
      </trkpt>
      <trkpt lat="45.03289" lon="4.12055">
        <ele>1225.34</ele>
        <time>2022-09-29T13:21:46Z</time>
      </trkpt>
      <trkpt lat="45.03286" lon="4.1206">
        <ele>1224.38</ele>
        <time>2022-09-29T13:21:58Z</time>
      </trkpt>
      <trkpt lat="45.03286" lon="4.12054">
        <ele>1223.9</ele>
        <time>2022-09-29T13:22:09Z</time>
      </trkpt>
      <trkpt lat="45.03286" lon="4.12052">
        <ele>1223.9</ele>
        <time>2022-09-29T13:22:14Z</time>
      </trkpt>
      <trkpt lat="45.03278" lon="4.1203">
        <ele>1221.49</ele>
        <time>2022-09-29T13:22:29Z</time>
      </trkpt>
      <trkpt lat="45.03274" lon="4.12012">
        <ele>1221.49</ele>
        <time>2022-09-29T13:22:45Z</time>
      </trkpt>
      <trkpt lat="45.03269" lon="4.11995">
        <ele>1223.9</ele>
        <time>2022-09-29T13:22:59Z</time>
      </trkpt>
      <trkpt lat="45.03269" lon="4.11992">
        <ele>1223.9</ele>
        <time>2022-09-29T13:23:16Z</time>
      </trkpt>
      <trkpt lat="45.03271" lon="4.11969">
        <ele>1227.74</ele>
        <time>2022-09-29T13:23:31Z</time>
      </trkpt>
      <trkpt lat="45.03272" lon="4.11965">
        <ele>1227.26</ele>
        <time>2022-09-29T13:23:46Z</time>
      </trkpt>
      <trkpt lat="45.03275" lon="4.11947">
        <ele>1227.26</ele>
        <time>2022-09-29T13:24:01Z</time>
      </trkpt>
      <trkpt lat="45.03279" lon="4.11937">
        <ele>1227.26</ele>
        <time>2022-09-29T13:24:07Z</time>
      </trkpt>
      <trkpt lat="45.03283" lon="4.1193">
        <ele>1228.7</ele>
        <time>2022-09-29T13:24:11Z</time>
      </trkpt>
      <trkpt lat="45.0328" lon="4.11922">
        <ele>1228.7</ele>
        <time>2022-09-29T13:24:18Z</time>
      </trkpt>
      <trkpt lat="45.03272" lon="4.11914">
        <ele>1227.26</ele>
        <time>2022-09-29T13:24:28Z</time>
      </trkpt>
      <trkpt lat="45.03263" lon="4.11907">
        <ele>1227.26</ele>
        <time>2022-09-29T13:24:42Z</time>
      </trkpt>
      <trkpt lat="45.03252" lon="4.119">
        <ele>1227.26</ele>
        <time>2022-09-29T13:24:57Z</time>
      </trkpt>
      <trkpt lat="45.03237" lon="4.11893">
        <ele>1227.74</ele>
        <time>2022-09-29T13:25:12Z</time>
      </trkpt>
      <trkpt lat="45.03226" lon="4.11869">
        <ele>1226.78</ele>
        <time>2022-09-29T13:25:29Z</time>
      </trkpt>
      <trkpt lat="45.03224" lon="4.11859">
        <ele>1225.82</ele>
        <time>2022-09-29T13:25:37Z</time>
      </trkpt>
      <trkpt lat="45.03219" lon="4.11844">
        <ele>1225.82</ele>
        <time>2022-09-29T13:25:49Z</time>
      </trkpt>
      <trkpt lat="45.03204" lon="4.11823">
        <ele>1226.78</ele>
        <time>2022-09-29T13:26:05Z</time>
      </trkpt>
      <trkpt lat="45.032" lon="4.11818">
        <ele>1225.82</ele>
        <time>2022-09-29T13:26:09Z</time>
      </trkpt>
      <trkpt lat="45.032" lon="4.11787">
        <ele>1224.38</ele>
        <time>2022-09-29T13:26:25Z</time>
      </trkpt>
      <trkpt lat="45.03202" lon="4.11756">
        <ele>1225.34</ele>
        <time>2022-09-29T13:26:42Z</time>
      </trkpt>
      <trkpt lat="45.03203" lon="4.11724">
        <ele>1225.34</ele>
        <time>2022-09-29T13:26:59Z</time>
      </trkpt>
      <trkpt lat="45.03203" lon="4.11715">
        <ele>1224.86</ele>
        <time>2022-09-29T13:27:04Z</time>
      </trkpt>
      <trkpt lat="45.03193" lon="4.11688">
        <ele>1223.42</ele>
        <time>2022-09-29T13:27:21Z</time>
      </trkpt>
      <trkpt lat="45.03182" lon="4.11682">
        <ele>1221.49</ele>
        <time>2022-09-29T13:27:30Z</time>
      </trkpt>
      <trkpt lat="45.03179" lon="4.11675">
        <ele>1220.53</ele>
        <time>2022-09-29T13:27:34Z</time>
      </trkpt>
      <trkpt lat="45.03183" lon="4.11651">
        <ele>1215.72</ele>
        <time>2022-09-29T13:27:47Z</time>
      </trkpt>
      <trkpt lat="45.03187" lon="4.11647">
        <ele>1214.28</ele>
        <time>2022-09-29T13:27:52Z</time>
      </trkpt>
      <trkpt lat="45.03193" lon="4.11641">
        <ele>1212.84</ele>
        <time>2022-09-29T13:27:59Z</time>
      </trkpt>
      <trkpt lat="45.03205" lon="4.11612">
        <ele>1208.03</ele>
        <time>2022-09-29T13:28:18Z</time>
      </trkpt>
      <trkpt lat="45.03206" lon="4.11604">
        <ele>1207.07</ele>
        <time>2022-09-29T13:28:23Z</time>
      </trkpt>
      <trkpt lat="45.03208" lon="4.11568">
        <ele>1209.48</ele>
        <time>2022-09-29T13:28:41Z</time>
      </trkpt>
      <trkpt lat="45.03211" lon="4.11545">
        <ele>1211.88</ele>
        <time>2022-09-29T13:28:57Z</time>
      </trkpt>
      <trkpt lat="45.03219" lon="4.11521">
        <ele>1211.88</ele>
        <time>2022-09-29T13:29:15Z</time>
      </trkpt>
      <trkpt lat="45.03226" lon="4.11499">
        <ele>1217.17</ele>
        <time>2022-09-29T13:29:30Z</time>
      </trkpt>
      <trkpt lat="45.03235" lon="4.11469">
        <ele>1218.61</ele>
        <time>2022-09-29T13:29:49Z</time>
      </trkpt>
      <trkpt lat="45.03245" lon="4.11436">
        <ele>1218.13</ele>
        <time>2022-09-29T13:30:06Z</time>
      </trkpt>
      <trkpt lat="45.0325" lon="4.11405">
        <ele>1218.13</ele>
        <time>2022-09-29T13:30:24Z</time>
      </trkpt>
      <trkpt lat="45.03258" lon="4.11376">
        <ele>1218.61</ele>
        <time>2022-09-29T13:30:39Z</time>
      </trkpt>
      <trkpt lat="45.03264" lon="4.11348">
        <ele>1219.57</ele>
        <time>2022-09-29T13:30:55Z</time>
      </trkpt>
      <trkpt lat="45.03275" lon="4.11328">
        <ele>1219.09</ele>
        <time>2022-09-29T13:31:13Z</time>
      </trkpt>
      <trkpt lat="45.03292" lon="4.11312">
        <ele>1217.65</ele>
        <time>2022-09-29T13:31:29Z</time>
      </trkpt>
      <trkpt lat="45.0331" lon="4.11286">
        <ele>1218.61</ele>
        <time>2022-09-29T13:31:46Z</time>
      </trkpt>
      <trkpt lat="45.03325" lon="4.11258">
        <ele>1218.61</ele>
        <time>2022-09-29T13:32:04Z</time>
      </trkpt>
      <trkpt lat="45.03346" lon="4.11247">
        <ele>1218.13</ele>
        <time>2022-09-29T13:32:25Z</time>
      </trkpt>
      <trkpt lat="45.03359" lon="4.11215">
        <ele>1216.69</ele>
        <time>2022-09-29T13:32:45Z</time>
      </trkpt>
      <trkpt lat="45.03379" lon="4.11192">
        <ele>1215.72</ele>
        <time>2022-09-29T13:33:06Z</time>
      </trkpt>
      <trkpt lat="45.03396" lon="4.11171">
        <ele>1213.8</ele>
        <time>2022-09-29T13:33:26Z</time>
      </trkpt>
      <trkpt lat="45.03416" lon="4.11149">
        <ele>1213.8</ele>
        <time>2022-09-29T13:33:43Z</time>
      </trkpt>
      <trkpt lat="45.0343" lon="4.11139">
        <ele>1213.8</ele>
        <time>2022-09-29T13:33:57Z</time>
      </trkpt>
      <trkpt lat="45.03451" lon="4.11122">
        <ele>1213.8</ele>
        <time>2022-09-29T13:34:14Z</time>
      </trkpt>
      <trkpt lat="45.03465" lon="4.11108">
        <ele>1215.24</ele>
        <time>2022-09-29T13:34:27Z</time>
      </trkpt>
      <trkpt lat="45.03468" lon="4.11105">
        <ele>1214.76</ele>
        <time>2022-09-29T13:34:30Z</time>
      </trkpt>
      <trkpt lat="45.03475" lon="4.11092">
        <ele>1216.21</ele>
        <time>2022-09-29T13:34:37Z</time>
      </trkpt>
      <trkpt lat="45.03486" lon="4.11084">
        <ele>1216.21</ele>
        <time>2022-09-29T13:34:52Z</time>
      </trkpt>
      <trkpt lat="45.03502" lon="4.11082">
        <ele>1213.8</ele>
        <time>2022-09-29T13:35:09Z</time>
      </trkpt>
      <trkpt lat="45.03539" lon="4.11075">
        <ele>1212.84</ele>
        <time>2022-09-29T13:35:33Z</time>
      </trkpt>
      <trkpt lat="45.03554" lon="4.11056">
        <ele>1215.72</ele>
        <time>2022-09-29T13:35:48Z</time>
      </trkpt>
      <trkpt lat="45.03556" lon="4.11049">
        <ele>1215.24</ele>
        <time>2022-09-29T13:36:03Z</time>
      </trkpt>
      <trkpt lat="45.03554" lon="4.11045">
        <ele>1216.69</ele>
        <time>2022-09-29T13:36:27Z</time>
      </trkpt>
      <trkpt lat="45.03552" lon="4.11042">
        <ele>1215.24</ele>
        <time>2022-09-29T13:36:50Z</time>
      </trkpt>
      <trkpt lat="45.03554" lon="4.11043">
        <ele>1215.24</ele>
        <time>2022-09-29T13:37:19Z</time>
      </trkpt>
      <trkpt lat="45.03552" lon="4.11042">
        <ele>1214.76</ele>
        <time>2022-09-29T13:37:45Z</time>
      </trkpt>
      <trkpt lat="45.03556" lon="4.11046">
        <ele>1214.76</ele>
        <time>2022-09-29T13:38:11Z</time>
      </trkpt>
      <trkpt lat="45.03558" lon="4.11051">
        <ele>1216.69</ele>
        <time>2022-09-29T13:38:28Z</time>
      </trkpt>
      <trkpt lat="45.03554" lon="4.1105">
        <ele>1216.21</ele>
        <time>2022-09-29T13:38:52Z</time>
      </trkpt>
      <trkpt lat="45.03555" lon="4.11052">
        <ele>1216.69</ele>
        <time>2022-09-29T13:39:19Z</time>
      </trkpt>
      <trkpt lat="45.03554" lon="4.11052">
        <ele>1217.65</ele>
        <time>2022-09-29T13:39:38Z</time>
      </trkpt>
      <trkpt lat="45.03559" lon="4.11042">
        <ele>1218.61</ele>
        <time>2022-09-29T13:40:02Z</time>
      </trkpt>
      <trkpt lat="45.03569" lon="4.11036">
        <ele>1217.17</ele>
        <time>2022-09-29T13:40:25Z</time>
      </trkpt>
      <trkpt lat="45.03581" lon="4.11029">
        <ele>1218.13</ele>
        <time>2022-09-29T13:40:47Z</time>
      </trkpt>
      <trkpt lat="45.03607" lon="4.11014">
        <ele>1215.72</ele>
        <time>2022-09-29T13:41:10Z</time>
      </trkpt>
      <trkpt lat="45.0362" lon="4.11014">
        <ele>1212.84</ele>
        <time>2022-09-29T13:41:35Z</time>
      </trkpt>
      <trkpt lat="45.03634" lon="4.11003">
        <ele>1214.76</ele>
        <time>2022-09-29T13:41:52Z</time>
      </trkpt>
      <trkpt lat="45.03652" lon="4.11001">
        <ele>1206.59</ele>
        <time>2022-09-29T13:42:14Z</time>
      </trkpt>
      <trkpt lat="45.03657" lon="4.11003">
        <ele>1205.63</ele>
        <time>2022-09-29T13:42:20Z</time>
      </trkpt>
      <trkpt lat="45.03674" lon="4.11006">
        <ele>1206.11</ele>
        <time>2022-09-29T13:42:30Z</time>
      </trkpt>
      <trkpt lat="45.03688" lon="4.10995">
        <ele>1204.67</ele>
        <time>2022-09-29T13:42:49Z</time>
      </trkpt>
      <trkpt lat="45.03715" lon="4.1098">
        <ele>1195.06</ele>
        <time>2022-09-29T13:43:11Z</time>
      </trkpt>
      <trkpt lat="45.03723" lon="4.10971">
        <ele>1194.58</ele>
        <time>2022-09-29T13:43:30Z</time>
      </trkpt>
      <trkpt lat="45.03746" lon="4.10959">
        <ele>1195.54</ele>
        <time>2022-09-29T13:43:47Z</time>
      </trkpt>
      <trkpt lat="45.03766" lon="4.10942">
        <ele>1194.58</ele>
        <time>2022-09-29T13:44:05Z</time>
      </trkpt>
      <trkpt lat="45.03768" lon="4.10942">
        <ele>1193.61</ele>
        <time>2022-09-29T13:44:07Z</time>
      </trkpt>
      <trkpt lat="45.03784" lon="4.10935">
        <ele>1182.56</ele>
        <time>2022-09-29T13:44:28Z</time>
      </trkpt>
      <trkpt lat="45.03798" lon="4.10932">
        <ele>1180.64</ele>
        <time>2022-09-29T13:44:44Z</time>
      </trkpt>
      <trkpt lat="45.03816" lon="4.10936">
        <ele>1183.04</ele>
        <time>2022-09-29T13:45:05Z</time>
      </trkpt>
      <trkpt lat="45.03836" lon="4.1092">
        <ele>1184.96</ele>
        <time>2022-09-29T13:45:25Z</time>
      </trkpt>
      <trkpt lat="45.03852" lon="4.10911">
        <ele>1189.29</ele>
        <time>2022-09-29T13:45:43Z</time>
      </trkpt>
      <trkpt lat="45.03869" lon="4.10907">
        <ele>1189.29</ele>
        <time>2022-09-29T13:45:58Z</time>
      </trkpt>
      <trkpt lat="45.03896" lon="4.10892">
        <ele>1187.37</ele>
        <time>2022-09-29T13:46:19Z</time>
      </trkpt>
      <trkpt lat="45.03918" lon="4.10881">
        <ele>1190.25</ele>
        <time>2022-09-29T13:46:38Z</time>
      </trkpt>
      <trkpt lat="45.03933" lon="4.10875">
        <ele>1190.25</ele>
        <time>2022-09-29T13:46:51Z</time>
      </trkpt>
      <trkpt lat="45.03949" lon="4.10872">
        <ele>1187.85</ele>
        <time>2022-09-29T13:47:05Z</time>
      </trkpt>
      <trkpt lat="45.03966" lon="4.10864">
        <ele>1188.33</ele>
        <time>2022-09-29T13:47:20Z</time>
      </trkpt>
      <trkpt lat="45.03978" lon="4.10861">
        <ele>1189.29</ele>
        <time>2022-09-29T13:47:31Z</time>
      </trkpt>
      <trkpt lat="45.03983" lon="4.10863">
        <ele>1188.33</ele>
        <time>2022-09-29T13:47:35Z</time>
      </trkpt>
      <trkpt lat="45.0399" lon="4.10862">
        <ele>1188.81</ele>
        <time>2022-09-29T13:47:39Z</time>
      </trkpt>
      <trkpt lat="45.04008" lon="4.10864">
        <ele>1190.73</ele>
        <time>2022-09-29T13:47:55Z</time>
      </trkpt>
      <trkpt lat="45.04021" lon="4.10863">
        <ele>1190.25</ele>
        <time>2022-09-29T13:48:07Z</time>
      </trkpt>
      <trkpt lat="45.04035" lon="4.10852">
        <ele>1188.81</ele>
        <time>2022-09-29T13:48:19Z</time>
      </trkpt>
      <trkpt lat="45.0404" lon="4.1085">
        <ele>1190.25</ele>
        <time>2022-09-29T13:48:30Z</time>
      </trkpt>
      <trkpt lat="45.04051" lon="4.10865">
        <ele>1188.33</ele>
        <time>2022-09-29T13:48:47Z</time>
      </trkpt>
      <trkpt lat="45.0406" lon="4.10877">
        <ele>1184</ele>
        <time>2022-09-29T13:49:04Z</time>
      </trkpt>
      <trkpt lat="45.04066" lon="4.10879">
        <ele>1182.08</ele>
        <time>2022-09-29T13:49:10Z</time>
      </trkpt>
      <trkpt lat="45.04089" lon="4.10868">
        <ele>1178.71</ele>
        <time>2022-09-29T13:49:31Z</time>
      </trkpt>
      <trkpt lat="45.04122" lon="4.10885">
        <ele>1175.83</ele>
        <time>2022-09-29T13:49:55Z</time>
      </trkpt>
      <trkpt lat="45.04149" lon="4.10899">
        <ele>1172.47</ele>
        <time>2022-09-29T13:50:16Z</time>
      </trkpt>
      <trkpt lat="45.04166" lon="4.10914">
        <ele>1164.29</ele>
        <time>2022-09-29T13:50:42Z</time>
      </trkpt>
      <trkpt lat="45.0419" lon="4.10914">
        <ele>1165.74</ele>
        <time>2022-09-29T13:51:03Z</time>
      </trkpt>
      <trkpt lat="45.04209" lon="4.10894">
        <ele>1160.45</ele>
        <time>2022-09-29T13:51:23Z</time>
      </trkpt>
      <trkpt lat="45.04222" lon="4.10882">
        <ele>1162.85</ele>
        <time>2022-09-29T13:51:42Z</time>
      </trkpt>
      <trkpt lat="45.04234" lon="4.1087">
        <ele>1166.7</ele>
        <time>2022-09-29T13:52:00Z</time>
      </trkpt>
      <trkpt lat="45.04259" lon="4.10843">
        <ele>1161.41</ele>
        <time>2022-09-29T13:52:24Z</time>
      </trkpt>
      <trkpt lat="45.04273" lon="4.10817">
        <ele>1158.53</ele>
        <time>2022-09-29T13:52:45Z</time>
      </trkpt>
      <trkpt lat="45.04292" lon="4.10793">
        <ele>1153.72</ele>
        <time>2022-09-29T13:53:08Z</time>
      </trkpt>
      <trkpt lat="45.04309" lon="4.10788">
        <ele>1149.87</ele>
        <time>2022-09-29T13:53:28Z</time>
      </trkpt>
      <trkpt lat="45.04332" lon="4.10781">
        <ele>1148.91</ele>
        <time>2022-09-29T13:53:50Z</time>
      </trkpt>
      <trkpt lat="45.04354" lon="4.10771">
        <ele>1146.99</ele>
        <time>2022-09-29T13:54:10Z</time>
      </trkpt>
      <trkpt lat="45.04364" lon="4.10758">
        <ele>1144.59</ele>
        <time>2022-09-29T13:54:19Z</time>
      </trkpt>
      <trkpt lat="45.0438" lon="4.10754">
        <ele>1140.74</ele>
        <time>2022-09-29T13:54:40Z</time>
      </trkpt>
      <trkpt lat="45.04402" lon="4.10745">
        <ele>1139.78</ele>
        <time>2022-09-29T13:54:58Z</time>
      </trkpt>
      <trkpt lat="45.04414" lon="4.10736">
        <ele>1136.9</ele>
        <time>2022-09-29T13:55:12Z</time>
      </trkpt>
      <trkpt lat="45.04433" lon="4.10722">
        <ele>1132.57</ele>
        <time>2022-09-29T13:55:34Z</time>
      </trkpt>
      <trkpt lat="45.04456" lon="4.10704">
        <ele>1130.17</ele>
        <time>2022-09-29T13:55:52Z</time>
      </trkpt>
      <trkpt lat="45.04459" lon="4.10696">
        <ele>1123.44</ele>
        <time>2022-09-29T13:56:07Z</time>
      </trkpt>
      <trkpt lat="45.04463" lon="4.10693">
        <ele>1122.96</ele>
        <time>2022-09-29T13:56:27Z</time>
      </trkpt>
      <trkpt lat="45.04475" lon="4.10678">
        <ele>1124.88</ele>
        <time>2022-09-29T13:56:51Z</time>
      </trkpt>
      <trkpt lat="45.04488" lon="4.10653">
        <ele>1123.92</ele>
        <time>2022-09-29T13:57:16Z</time>
      </trkpt>
      <trkpt lat="45.0451" lon="4.10634">
        <ele>1118.15</ele>
        <time>2022-09-29T13:57:41Z</time>
      </trkpt>
      <trkpt lat="45.04525" lon="4.1062">
        <ele>1116.23</ele>
        <time>2022-09-29T13:58:03Z</time>
      </trkpt>
      <trkpt lat="45.04546" lon="4.10604">
        <ele>1110.46</ele>
        <time>2022-09-29T13:58:24Z</time>
      </trkpt>
      <trkpt lat="45.04552" lon="4.10602">
        <ele>1106.61</ele>
        <time>2022-09-29T13:58:47Z</time>
      </trkpt>
      <trkpt lat="45.04578" lon="4.10599">
        <ele>1101.81</ele>
        <time>2022-09-29T13:59:10Z</time>
      </trkpt>
      <trkpt lat="45.04594" lon="4.10601">
        <ele>1099.4</ele>
        <time>2022-09-29T13:59:35Z</time>
      </trkpt>
      <trkpt lat="45.0461" lon="4.10605">
        <ele>1093.16</ele>
        <time>2022-09-29T13:59:56Z</time>
      </trkpt>
      <trkpt lat="45.04628" lon="4.10606">
        <ele>1095.56</ele>
        <time>2022-09-29T14:00:12Z</time>
      </trkpt>
      <trkpt lat="45.04635" lon="4.1061">
        <ele>1093.64</ele>
        <time>2022-09-29T14:00:34Z</time>
      </trkpt>
      <trkpt lat="45.04654" lon="4.10603">
        <ele>1089.31</ele>
        <time>2022-09-29T14:00:56Z</time>
      </trkpt>
      <trkpt lat="45.04672" lon="4.10589">
        <ele>1083.54</ele>
        <time>2022-09-29T14:01:16Z</time>
      </trkpt>
      <trkpt lat="45.04678" lon="4.10588">
        <ele>1076.81</ele>
        <time>2022-09-29T14:01:34Z</time>
      </trkpt>
      <trkpt lat="45.04693" lon="4.10586">
        <ele>1074.41</ele>
        <time>2022-09-29T14:01:57Z</time>
      </trkpt>
      <trkpt lat="45.0471" lon="4.1058">
        <ele>1059.03</ele>
        <time>2022-09-29T14:02:20Z</time>
      </trkpt>
      <trkpt lat="45.04738" lon="4.10589">
        <ele>1042.21</ele>
        <time>2022-09-29T14:02:42Z</time>
      </trkpt>
      <trkpt lat="45.04766" lon="4.10602">
        <ele>1045.09</ele>
        <time>2022-09-29T14:02:59Z</time>
      </trkpt>
      <trkpt lat="45.04784" lon="4.10621">
        <ele>1046.05</ele>
        <time>2022-09-29T14:03:16Z</time>
      </trkpt>
      <trkpt lat="45.0479" lon="4.10617">
        <ele>1049.9</ele>
        <time>2022-09-29T14:03:29Z</time>
      </trkpt>
      <trkpt lat="45.04792" lon="4.10615">
        <ele>1050.86</ele>
        <time>2022-09-29T14:03:49Z</time>
      </trkpt>
      <trkpt lat="45.04794" lon="4.10642">
        <ele>1049.9</ele>
        <time>2022-09-29T14:04:05Z</time>
      </trkpt>
      <trkpt lat="45.04797" lon="4.10649">
        <ele>1049.9</ele>
        <time>2022-09-29T14:04:12Z</time>
      </trkpt>
      <trkpt lat="45.04812" lon="4.10677">
        <ele>1047.97</ele>
        <time>2022-09-29T14:04:33Z</time>
      </trkpt>
      <trkpt lat="45.04828" lon="4.10701">
        <ele>1057.59</ele>
        <time>2022-09-29T14:04:48Z</time>
      </trkpt>
      <trkpt lat="45.04839" lon="4.10724">
        <ele>1059.03</ele>
        <time>2022-09-29T14:05:07Z</time>
      </trkpt>
      <trkpt lat="45.04849" lon="4.10732">
        <ele>1059.99</ele>
        <time>2022-09-29T14:05:18Z</time>
      </trkpt>
      <trkpt lat="45.04857" lon="4.10741">
        <ele>1065.28</ele>
        <time>2022-09-29T14:05:35Z</time>
      </trkpt>
      <trkpt lat="45.04857" lon="4.10745">
        <ele>1069.12</ele>
        <time>2022-09-29T14:05:57Z</time>
      </trkpt>
      <trkpt lat="45.04857" lon="4.10748">
        <ele>1069.6</ele>
        <time>2022-09-29T14:05:59Z</time>
      </trkpt>
      <trkpt lat="45.04872" lon="4.10769">
        <ele>1070.57</ele>
        <time>2022-09-29T14:06:17Z</time>
      </trkpt>
      <trkpt lat="45.0489" lon="4.10784">
        <ele>1073.45</ele>
        <time>2022-09-29T14:06:35Z</time>
      </trkpt>
      <trkpt lat="45.04898" lon="4.10792">
        <ele>1074.89</ele>
        <time>2022-09-29T14:06:50Z</time>
      </trkpt>
      <trkpt lat="45.04913" lon="4.10803">
        <ele>1075.85</ele>
        <time>2022-09-29T14:07:10Z</time>
      </trkpt>
      <trkpt lat="45.04927" lon="4.10813">
        <ele>1074.41</ele>
        <time>2022-09-29T14:07:28Z</time>
      </trkpt>
      <trkpt lat="45.04931" lon="4.10811">
        <ele>1072.97</ele>
        <time>2022-09-29T14:07:44Z</time>
      </trkpt>
      <trkpt lat="45.04942" lon="4.10823">
        <ele>1074.41</ele>
        <time>2022-09-29T14:07:59Z</time>
      </trkpt>
      <trkpt lat="45.04952" lon="4.10833">
        <ele>1073.93</ele>
        <time>2022-09-29T14:08:13Z</time>
      </trkpt>
      <trkpt lat="45.04974" lon="4.10844">
        <ele>1072.97</ele>
        <time>2022-09-29T14:08:31Z</time>
      </trkpt>
      <trkpt lat="45.04995" lon="4.1085">
        <ele>1071.05</ele>
        <time>2022-09-29T14:08:47Z</time>
      </trkpt>
      <trkpt lat="45.0501" lon="4.10851">
        <ele>1072.49</ele>
        <time>2022-09-29T14:09:05Z</time>
      </trkpt>
      <trkpt lat="45.0501" lon="4.10851">
        <ele>1072.49</ele>
        <time>2022-09-29T14:09:07Z</time>
      </trkpt>
      <trkpt lat="45.04999" lon="4.10851">
        <ele>1073.93</ele>
        <time>2022-09-29T14:09:15Z</time>
      </trkpt>
      <trkpt lat="45.04999" lon="4.10856">
        <ele>1073.93</ele>
        <time>2022-09-29T14:09:17Z</time>
      </trkpt>
      <trkpt lat="45.05007" lon="4.10874">
        <ele>1074.41</ele>
        <time>2022-09-29T14:09:29Z</time>
      </trkpt>
      <trkpt lat="45.05011" lon="4.10881">
        <ele>1075.37</ele>
        <time>2022-09-29T14:09:43Z</time>
      </trkpt>
      <trkpt lat="45.05028" lon="4.10894">
        <ele>1075.85</ele>
        <time>2022-09-29T14:09:57Z</time>
      </trkpt>
      <trkpt lat="45.05029" lon="4.10896">
        <ele>1075.85</ele>
        <time>2022-09-29T14:09:59Z</time>
      </trkpt>
      <trkpt lat="45.0503" lon="4.10898">
        <ele>1076.81</ele>
        <time>2022-09-29T14:10:01Z</time>
      </trkpt>
      <trkpt lat="45.05048" lon="4.10911">
        <ele>1080.18</ele>
        <time>2022-09-29T14:10:18Z</time>
      </trkpt>
      <trkpt lat="45.05052" lon="4.10916">
        <ele>1081.62</ele>
        <time>2022-09-29T14:10:34Z</time>
      </trkpt>
      <trkpt lat="45.05061" lon="4.10919">
        <ele>1082.1</ele>
        <time>2022-09-29T14:10:48Z</time>
      </trkpt>
      <trkpt lat="45.05073" lon="4.10921">
        <ele>1082.1</ele>
        <time>2022-09-29T14:11:04Z</time>
      </trkpt>
      <trkpt lat="45.05086" lon="4.10944">
        <ele>1081.62</ele>
        <time>2022-09-29T14:11:21Z</time>
      </trkpt>
      <trkpt lat="45.05094" lon="4.10961">
        <ele>1082.58</ele>
        <time>2022-09-29T14:11:36Z</time>
      </trkpt>
      <trkpt lat="45.05107" lon="4.1098">
        <ele>1084.02</ele>
        <time>2022-09-29T14:11:51Z</time>
      </trkpt>
      <trkpt lat="45.05118" lon="4.10991">
        <ele>1084.5</ele>
        <time>2022-09-29T14:12:07Z</time>
      </trkpt>
      <trkpt lat="45.05129" lon="4.11031">
        <ele>1084.02</ele>
        <time>2022-09-29T14:12:30Z</time>
      </trkpt>
      <trkpt lat="45.05142" lon="4.11059">
        <ele>1082.58</ele>
        <time>2022-09-29T14:12:51Z</time>
      </trkpt>
      <trkpt lat="45.05159" lon="4.11094">
        <ele>1082.1</ele>
        <time>2022-09-29T14:13:17Z</time>
      </trkpt>
      <trkpt lat="45.05161" lon="4.11133">
        <ele>1082.58</ele>
        <time>2022-09-29T14:13:36Z</time>
      </trkpt>
      <trkpt lat="45.05173" lon="4.11151">
        <ele>1084.5</ele>
        <time>2022-09-29T14:13:56Z</time>
      </trkpt>
      <trkpt lat="45.05187" lon="4.11189">
        <ele>1083.06</ele>
        <time>2022-09-29T14:14:17Z</time>
      </trkpt>
      <trkpt lat="45.05195" lon="4.11226">
        <ele>1087.39</ele>
        <time>2022-09-29T14:14:39Z</time>
      </trkpt>
      <trkpt lat="45.05193" lon="4.11257">
        <ele>1089.79</ele>
        <time>2022-09-29T14:14:57Z</time>
      </trkpt>
      <trkpt lat="45.05195" lon="4.11288">
        <ele>1089.31</ele>
        <time>2022-09-29T14:15:17Z</time>
      </trkpt>
      <trkpt lat="45.05188" lon="4.11319">
        <ele>1084.99</ele>
        <time>2022-09-29T14:15:36Z</time>
      </trkpt>
      <trkpt lat="45.05194" lon="4.11348">
        <ele>1085.95</ele>
        <time>2022-09-29T14:16:00Z</time>
      </trkpt>
      <trkpt lat="45.05205" lon="4.11366">
        <ele>1087.39</ele>
        <time>2022-09-29T14:16:23Z</time>
      </trkpt>
      <trkpt lat="45.0521" lon="4.11407">
        <ele>1090.75</ele>
        <time>2022-09-29T14:16:46Z</time>
      </trkpt>
      <trkpt lat="45.05226" lon="4.11388">
        <ele>1094.12</ele>
        <time>2022-09-29T14:17:01Z</time>
      </trkpt>
      <trkpt lat="45.05255" lon="4.11368">
        <ele>1089.31</ele>
        <time>2022-09-29T14:17:24Z</time>
      </trkpt>
      <trkpt lat="45.05279" lon="4.1135">
        <ele>1086.91</ele>
        <time>2022-09-29T14:17:47Z</time>
      </trkpt>
      <trkpt lat="45.05305" lon="4.11321">
        <ele>1084.02</ele>
        <time>2022-09-29T14:18:08Z</time>
      </trkpt>
      <trkpt lat="45.05331" lon="4.11305">
        <ele>1081.14</ele>
        <time>2022-09-29T14:18:30Z</time>
      </trkpt>
      <trkpt lat="45.05354" lon="4.11283">
        <ele>1078.74</ele>
        <time>2022-09-29T14:18:52Z</time>
      </trkpt>
      <trkpt lat="45.0536" lon="4.11278">
        <ele>1079.22</ele>
        <time>2022-09-29T14:18:57Z</time>
      </trkpt>
      <trkpt lat="45.05389" lon="4.11259">
        <ele>1074.89</ele>
        <time>2022-09-29T14:19:19Z</time>
      </trkpt>
      <trkpt lat="45.05397" lon="4.11256">
        <ele>1073.93</ele>
        <time>2022-09-29T14:19:25Z</time>
      </trkpt>
      <trkpt lat="45.05428" lon="4.11248">
        <ele>1069.12</ele>
        <time>2022-09-29T14:19:46Z</time>
      </trkpt>
      <trkpt lat="45.05447" lon="4.11234">
        <ele>1068.64</ele>
        <time>2022-09-29T14:20:01Z</time>
      </trkpt>
      <trkpt lat="45.05459" lon="4.11216">
        <ele>1067.2</ele>
        <time>2022-09-29T14:20:14Z</time>
      </trkpt>
      <trkpt lat="45.05459" lon="4.11213">
        <ele>1067.68</ele>
        <time>2022-09-29T14:20:15Z</time>
      </trkpt>
      <trkpt lat="45.0547" lon="4.11179">
        <ele>1069.6</ele>
        <time>2022-09-29T14:20:32Z</time>
      </trkpt>
      <trkpt lat="45.05482" lon="4.11154">
        <ele>1071.05</ele>
        <time>2022-09-29T14:20:47Z</time>
      </trkpt>
      <trkpt lat="45.05496" lon="4.11131">
        <ele>1070.08</ele>
        <time>2022-09-29T14:21:03Z</time>
      </trkpt>
      <trkpt lat="45.05513" lon="4.11108">
        <ele>1068.64</ele>
        <time>2022-09-29T14:21:21Z</time>
      </trkpt>
      <trkpt lat="45.05527" lon="4.11083">
        <ele>1068.64</ele>
        <time>2022-09-29T14:21:37Z</time>
      </trkpt>
      <trkpt lat="45.0554" lon="4.11054">
        <ele>1066.24</ele>
        <time>2022-09-29T14:21:54Z</time>
      </trkpt>
      <trkpt lat="45.05555" lon="4.11029">
        <ele>1063.84</ele>
        <time>2022-09-29T14:22:13Z</time>
      </trkpt>
      <trkpt lat="45.05556" lon="4.11028">
        <ele>1063.84</ele>
        <time>2022-09-29T14:22:15Z</time>
      </trkpt>
      <trkpt lat="45.05574" lon="4.11015">
        <ele>1062.87</ele>
        <time>2022-09-29T14:22:31Z</time>
      </trkpt>
      <trkpt lat="45.05594" lon="4.10976">
        <ele>1059.51</ele>
        <time>2022-09-29T14:22:51Z</time>
      </trkpt>
      <trkpt lat="45.05603" lon="4.10953">
        <ele>1057.59</ele>
        <time>2022-09-29T14:23:06Z</time>
      </trkpt>
      <trkpt lat="45.05603" lon="4.10943">
        <ele>1057.11</ele>
        <time>2022-09-29T14:23:26Z</time>
      </trkpt>
      <trkpt lat="45.05602" lon="4.10939">
        <ele>1057.11</ele>
        <time>2022-09-29T14:23:40Z</time>
      </trkpt>
      <trkpt lat="45.05601" lon="4.10929">
        <ele>1057.11</ele>
        <time>2022-09-29T14:23:45Z</time>
      </trkpt>
      <trkpt lat="45.05606" lon="4.10893">
        <ele>1057.59</ele>
        <time>2022-09-29T14:24:02Z</time>
      </trkpt>
      <trkpt lat="45.0561" lon="4.10874">
        <ele>1057.59</ele>
        <time>2022-09-29T14:24:15Z</time>
      </trkpt>
      <trkpt lat="45.05613" lon="4.10842">
        <ele>1055.67</ele>
        <time>2022-09-29T14:24:31Z</time>
      </trkpt>
      <trkpt lat="45.05619" lon="4.10812">
        <ele>1054.7</ele>
        <time>2022-09-29T14:24:47Z</time>
      </trkpt>
      <trkpt lat="45.0562" lon="4.10785">
        <ele>1053.74</ele>
        <time>2022-09-29T14:25:01Z</time>
      </trkpt>
      <trkpt lat="45.05624" lon="4.1078">
        <ele>1053.26</ele>
        <time>2022-09-29T14:25:17Z</time>
      </trkpt>
      <trkpt lat="45.05624" lon="4.1078">
        <ele>1052.78</ele>
        <time>2022-09-29T14:25:34Z</time>
      </trkpt>
      <trkpt lat="45.05635" lon="4.10767">
        <ele>1051.82</ele>
        <time>2022-09-29T14:25:49Z</time>
      </trkpt>
      <trkpt lat="45.0565" lon="4.10754">
        <ele>1051.34</ele>
        <time>2022-09-29T14:26:08Z</time>
      </trkpt>
      <trkpt lat="45.05669" lon="4.10744">
        <ele>1052.78</ele>
        <time>2022-09-29T14:26:27Z</time>
      </trkpt>
      <trkpt lat="45.05681" lon="4.10736">
        <ele>1053.74</ele>
        <time>2022-09-29T14:26:37Z</time>
      </trkpt>
      <trkpt lat="45.05703" lon="4.10715">
        <ele>1052.3</ele>
        <time>2022-09-29T14:26:55Z</time>
      </trkpt>
      <trkpt lat="45.05715" lon="4.10696">
        <ele>1051.82</ele>
        <time>2022-09-29T14:27:10Z</time>
      </trkpt>
      <trkpt lat="45.05734" lon="4.10685">
        <ele>1050.38</ele>
        <time>2022-09-29T14:27:28Z</time>
      </trkpt>
      <trkpt lat="45.05735" lon="4.10682">
        <ele>1050.86</ele>
        <time>2022-09-29T14:27:51Z</time>
      </trkpt>
      <trkpt lat="45.05735" lon="4.10682">
        <ele>1050.38</ele>
        <time>2022-09-29T14:28:00Z</time>
      </trkpt>
      <trkpt lat="45.05761" lon="4.10674">
        <ele>1052.78</ele>
        <time>2022-09-29T14:28:13Z</time>
      </trkpt>
      <trkpt lat="45.05781" lon="4.10656">
        <ele>1052.3</ele>
        <time>2022-09-29T14:28:28Z</time>
      </trkpt>
      <trkpt lat="45.05793" lon="4.10652">
        <ele>1052.3</ele>
        <time>2022-09-29T14:28:42Z</time>
      </trkpt>
      <trkpt lat="45.05796" lon="4.1065">
        <ele>1051.82</ele>
        <time>2022-09-29T14:28:48Z</time>
      </trkpt>
      <trkpt lat="45.05809" lon="4.10637">
        <ele>1052.78</ele>
        <time>2022-09-29T14:29:02Z</time>
      </trkpt>
      <trkpt lat="45.05824" lon="4.10622">
        <ele>1054.22</ele>
        <time>2022-09-29T14:29:20Z</time>
      </trkpt>
      <trkpt lat="45.05827" lon="4.10617">
        <ele>1053.74</ele>
        <time>2022-09-29T14:29:41Z</time>
      </trkpt>
      <trkpt lat="45.05834" lon="4.10614">
        <ele>1051.34</ele>
        <time>2022-09-29T14:29:54Z</time>
      </trkpt>
      <trkpt lat="45.05836" lon="4.10609">
        <ele>1050.38</ele>
        <time>2022-09-29T14:30:09Z</time>
      </trkpt>
      <trkpt lat="45.05836" lon="4.10605">
        <ele>1050.38</ele>
        <time>2022-09-29T14:30:21Z</time>
      </trkpt>
      <trkpt lat="45.05841" lon="4.10588">
        <ele>1049.42</ele>
        <time>2022-09-29T14:30:32Z</time>
      </trkpt>
      <trkpt lat="45.05836" lon="4.10573">
        <ele>1046.53</ele>
        <time>2022-09-29T14:30:45Z</time>
      </trkpt>
      <trkpt lat="45.05837" lon="4.10566">
        <ele>1044.61</ele>
        <time>2022-09-29T14:30:50Z</time>
      </trkpt>
      <trkpt lat="45.0585" lon="4.10547">
        <ele>1041.73</ele>
        <time>2022-09-29T14:31:06Z</time>
      </trkpt>
      <trkpt lat="45.05857" lon="4.10539">
        <ele>1039.8</ele>
        <time>2022-09-29T14:31:20Z</time>
      </trkpt>
      <trkpt lat="45.05863" lon="4.10535">
        <ele>1040.28</ele>
        <time>2022-09-29T14:31:25Z</time>
      </trkpt>
      <trkpt lat="45.05881" lon="4.10508">
        <ele>1037.4</ele>
        <time>2022-09-29T14:31:45Z</time>
      </trkpt>
      <trkpt lat="45.05891" lon="4.10496">
        <ele>1035.96</ele>
        <time>2022-09-29T14:32:00Z</time>
      </trkpt>
      <trkpt lat="45.05901" lon="4.10481">
        <ele>1034.04</ele>
        <time>2022-09-29T14:32:15Z</time>
      </trkpt>
      <trkpt lat="45.05919" lon="4.10459">
        <ele>1032.59</ele>
        <time>2022-09-29T14:32:29Z</time>
      </trkpt>
      <trkpt lat="45.05925" lon="4.10446">
        <ele>1030.67</ele>
        <time>2022-09-29T14:32:42Z</time>
      </trkpt>
      <trkpt lat="45.05932" lon="4.10416">
        <ele>1027.31</ele>
        <time>2022-09-29T14:32:59Z</time>
      </trkpt>
      <trkpt lat="45.05923" lon="4.10393">
        <ele>1026.34</ele>
        <time>2022-09-29T14:33:12Z</time>
      </trkpt>
      <trkpt lat="45.05921" lon="4.10382">
        <ele>1025.38</ele>
        <time>2022-09-29T14:33:19Z</time>
      </trkpt>
      <trkpt lat="45.05922" lon="4.10374">
        <ele>1024.42</ele>
        <time>2022-09-29T14:33:23Z</time>
      </trkpt>
      <trkpt lat="45.05935" lon="4.10354">
        <ele>1018.17</ele>
        <time>2022-09-29T14:33:39Z</time>
      </trkpt>
      <trkpt lat="45.05952" lon="4.10333">
        <ele>1014.33</ele>
        <time>2022-09-29T14:33:58Z</time>
      </trkpt>
      <trkpt lat="45.05972" lon="4.10315">
        <ele>1011.44</ele>
        <time>2022-09-29T14:34:16Z</time>
      </trkpt>
      <trkpt lat="45.05982" lon="4.10299">
        <ele>1010.96</ele>
        <time>2022-09-29T14:34:31Z</time>
      </trkpt>
      <trkpt lat="45.05993" lon="4.10279">
        <ele>1011.93</ele>
        <time>2022-09-29T14:34:45Z</time>
      </trkpt>
      <trkpt lat="45.05991" lon="4.10249">
        <ele>1014.33</ele>
        <time>2022-09-29T14:35:03Z</time>
      </trkpt>
      <trkpt lat="45.0599" lon="4.10245">
        <ele>1015.29</ele>
        <time>2022-09-29T14:35:16Z</time>
      </trkpt>
      <trkpt lat="45.05993" lon="4.10226">
        <ele>1014.81</ele>
        <time>2022-09-29T14:35:30Z</time>
      </trkpt>
      <trkpt lat="45.05988" lon="4.10196">
        <ele>1015.29</ele>
        <time>2022-09-29T14:35:50Z</time>
      </trkpt>
      <trkpt lat="45.05989" lon="4.10168">
        <ele>1016.25</ele>
        <time>2022-09-29T14:36:08Z</time>
      </trkpt>
      <trkpt lat="45.0599" lon="4.10139">
        <ele>1016.73</ele>
        <time>2022-09-29T14:36:24Z</time>
      </trkpt>
      <trkpt lat="45.05993" lon="4.1011">
        <ele>1018.17</ele>
        <time>2022-09-29T14:36:42Z</time>
      </trkpt>
      <trkpt lat="45.05997" lon="4.10097">
        <ele>1019.62</ele>
        <time>2022-09-29T14:36:52Z</time>
      </trkpt>
      <trkpt lat="45.0601" lon="4.10074">
        <ele>1024.42</ele>
        <time>2022-09-29T14:37:08Z</time>
      </trkpt>
      <trkpt lat="45.06018" lon="4.10055">
        <ele>1027.79</ele>
        <time>2022-09-29T14:37:23Z</time>
      </trkpt>
      <trkpt lat="45.06028" lon="4.10034">
        <ele>1030.19</ele>
        <time>2022-09-29T14:37:40Z</time>
      </trkpt>
      <trkpt lat="45.06035" lon="4.10021">
        <ele>1031.63</ele>
        <time>2022-09-29T14:37:51Z</time>
      </trkpt>
      <trkpt lat="45.06041" lon="4.09999">
        <ele>1035</ele>
        <time>2022-09-29T14:38:05Z</time>
      </trkpt>
      <trkpt lat="45.06048" lon="4.09981">
        <ele>1039.8</ele>
        <time>2022-09-29T14:38:22Z</time>
      </trkpt>
      <trkpt lat="45.06056" lon="4.09963">
        <ele>1042.21</ele>
        <time>2022-09-29T14:38:37Z</time>
      </trkpt>
      <trkpt lat="45.06063" lon="4.09936">
        <ele>1046.05</ele>
        <time>2022-09-29T14:38:56Z</time>
      </trkpt>
      <trkpt lat="45.0607" lon="4.09914">
        <ele>1048.94</ele>
        <time>2022-09-29T14:39:13Z</time>
      </trkpt>
      <trkpt lat="45.06083" lon="4.09892">
        <ele>1051.82</ele>
        <time>2022-09-29T14:39:30Z</time>
      </trkpt>
      <trkpt lat="45.06091" lon="4.09873">
        <ele>1053.26</ele>
        <time>2022-09-29T14:39:43Z</time>
      </trkpt>
      <trkpt lat="45.06101" lon="4.09851">
        <ele>1056.63</ele>
        <time>2022-09-29T14:39:59Z</time>
      </trkpt>
      <trkpt lat="45.06102" lon="4.09847">
        <ele>1056.15</ele>
        <time>2022-09-29T14:40:02Z</time>
      </trkpt>
      <trkpt lat="45.06103" lon="4.09844">
        <ele>1056.15</ele>
        <time>2022-09-29T14:40:04Z</time>
      </trkpt>
      <trkpt lat="45.06113" lon="4.09817">
        <ele>1058.07</ele>
        <time>2022-09-29T14:40:22Z</time>
      </trkpt>
      <trkpt lat="45.06122" lon="4.09797">
        <ele>1059.99</ele>
        <time>2022-09-29T14:40:36Z</time>
      </trkpt>
      <trkpt lat="45.06134" lon="4.09771">
        <ele>1062.87</ele>
        <time>2022-09-29T14:40:53Z</time>
      </trkpt>
      <trkpt lat="45.06141" lon="4.09748">
        <ele>1062.87</ele>
        <time>2022-09-29T14:41:08Z</time>
      </trkpt>
      <trkpt lat="45.06147" lon="4.09733">
        <ele>1062.39</ele>
        <time>2022-09-29T14:41:24Z</time>
      </trkpt>
      <trkpt lat="45.06155" lon="4.09699">
        <ele>1063.84</ele>
        <time>2022-09-29T14:41:44Z</time>
      </trkpt>
      <trkpt lat="45.06153" lon="4.09693">
        <ele>1064.8</ele>
        <time>2022-09-29T14:41:47Z</time>
      </trkpt>
      <trkpt lat="45.06153" lon="4.09685">
        <ele>1067.2</ele>
        <time>2022-09-29T14:41:52Z</time>
      </trkpt>
      <trkpt lat="45.06154" lon="4.09678">
        <ele>1068.64</ele>
        <time>2022-09-29T14:41:57Z</time>
      </trkpt>
      <trkpt lat="45.06156" lon="4.09655">
        <ele>1071.05</ele>
        <time>2022-09-29T14:42:12Z</time>
      </trkpt>
      <trkpt lat="45.06163" lon="4.09645">
        <ele>1072.01</ele>
        <time>2022-09-29T14:42:20Z</time>
      </trkpt>
      <trkpt lat="45.06179" lon="4.09639">
        <ele>1074.41</ele>
        <time>2022-09-29T14:42:35Z</time>
      </trkpt>
      <trkpt lat="45.06196" lon="4.09629">
        <ele>1077.29</ele>
        <time>2022-09-29T14:42:48Z</time>
      </trkpt>
      <trkpt lat="45.06209" lon="4.09623">
        <ele>1078.74</ele>
        <time>2022-09-29T14:42:57Z</time>
      </trkpt>
      <trkpt lat="45.06212" lon="4.09621">
        <ele>1078.74</ele>
        <time>2022-09-29T14:43:00Z</time>
      </trkpt>
      <trkpt lat="45.06219" lon="4.09614">
        <ele>1078.26</ele>
        <time>2022-09-29T14:43:07Z</time>
      </trkpt>
      <trkpt lat="45.06234" lon="4.09617">
        <ele>1080.66</ele>
        <time>2022-09-29T14:43:18Z</time>
      </trkpt>
      <trkpt lat="45.06246" lon="4.0962">
        <ele>1081.62</ele>
        <time>2022-09-29T14:43:29Z</time>
      </trkpt>
      <trkpt lat="45.06258" lon="4.09624">
        <ele>1082.1</ele>
        <time>2022-09-29T14:43:39Z</time>
      </trkpt>
      <trkpt lat="45.06271" lon="4.09626">
        <ele>1084.02</ele>
        <time>2022-09-29T14:43:51Z</time>
      </trkpt>
      <trkpt lat="45.06276" lon="4.09626">
        <ele>1084.99</ele>
        <time>2022-09-29T14:44:08Z</time>
      </trkpt>
      <trkpt lat="45.06275" lon="4.09624">
        <ele>1084.5</ele>
        <time>2022-09-29T14:44:33Z</time>
      </trkpt>
      <trkpt lat="45.06276" lon="4.09623">
        <ele>1084.5</ele>
        <time>2022-09-29T14:44:56Z</time>
      </trkpt>
      <trkpt lat="45.06276" lon="4.09623">
        <ele>1084.99</ele>
        <time>2022-09-29T14:45:16Z</time>
      </trkpt>
      <trkpt lat="45.06276" lon="4.09627">
        <ele>1084.99</ele>
        <time>2022-09-29T14:45:28Z</time>
      </trkpt>
      <trkpt lat="45.06275" lon="4.09625">
        <ele>1084.02</ele>
        <time>2022-09-29T14:45:52Z</time>
      </trkpt>
      <trkpt lat="45.06273" lon="4.09626">
        <ele>1084.02</ele>
        <time>2022-09-29T14:46:16Z</time>
      </trkpt>
      <trkpt lat="45.06274" lon="4.09626">
        <ele>1084.02</ele>
        <time>2022-09-29T14:46:53Z</time>
      </trkpt>
      <trkpt lat="45.06276" lon="4.09629">
        <ele>1083.54</ele>
        <time>2022-09-29T14:47:03Z</time>
      </trkpt>
      <trkpt lat="45.06292" lon="4.09642">
        <ele>1084.5</ele>
        <time>2022-09-29T14:47:20Z</time>
      </trkpt>
      <trkpt lat="45.06309" lon="4.09657">
        <ele>1087.39</ele>
        <time>2022-09-29T14:47:38Z</time>
      </trkpt>
      <trkpt lat="45.0632" lon="4.0967">
        <ele>1089.31</ele>
        <time>2022-09-29T14:47:52Z</time>
      </trkpt>
      <trkpt lat="45.06337" lon="4.09688">
        <ele>1090.27</ele>
        <time>2022-09-29T14:48:11Z</time>
      </trkpt>
      <trkpt lat="45.06341" lon="4.09696">
        <ele>1090.27</ele>
        <time>2022-09-29T14:48:17Z</time>
      </trkpt>
      <trkpt lat="45.06352" lon="4.09716">
        <ele>1091.23</ele>
        <time>2022-09-29T14:48:32Z</time>
      </trkpt>
      <trkpt lat="45.06367" lon="4.09741">
        <ele>1092.2</ele>
        <time>2022-09-29T14:48:50Z</time>
      </trkpt>
      <trkpt lat="45.06381" lon="4.09757">
        <ele>1092.68</ele>
        <time>2022-09-29T14:49:06Z</time>
      </trkpt>
      <trkpt lat="45.06397" lon="4.09775">
        <ele>1094.6</ele>
        <time>2022-09-29T14:49:22Z</time>
      </trkpt>
      <trkpt lat="45.06417" lon="4.09795">
        <ele>1097</ele>
        <time>2022-09-29T14:49:41Z</time>
      </trkpt>
      <trkpt lat="45.06433" lon="4.09818">
        <ele>1097</ele>
        <time>2022-09-29T14:49:58Z</time>
      </trkpt>
      <trkpt lat="45.06442" lon="4.09826">
        <ele>1097</ele>
        <time>2022-09-29T14:50:08Z</time>
      </trkpt>
      <trkpt lat="45.0646" lon="4.09842">
        <ele>1096.04</ele>
        <time>2022-09-29T14:50:25Z</time>
      </trkpt>
      <trkpt lat="45.06479" lon="4.09856">
        <ele>1097.48</ele>
        <time>2022-09-29T14:50:41Z</time>
      </trkpt>
      <trkpt lat="45.06498" lon="4.09867">
        <ele>1097.96</ele>
        <time>2022-09-29T14:50:58Z</time>
      </trkpt>
      <trkpt lat="45.06506" lon="4.09872">
        <ele>1098.44</ele>
        <time>2022-09-29T14:51:13Z</time>
      </trkpt>
      <trkpt lat="45.06529" lon="4.09888">
        <ele>1097.96</ele>
        <time>2022-09-29T14:51:34Z</time>
      </trkpt>
      <trkpt lat="45.06551" lon="4.09896">
        <ele>1098.92</ele>
        <time>2022-09-29T14:51:52Z</time>
      </trkpt>
      <trkpt lat="45.06578" lon="4.09911">
        <ele>1099.89</ele>
        <time>2022-09-29T14:52:15Z</time>
      </trkpt>
      <trkpt lat="45.06597" lon="4.09924">
        <ele>1100.37</ele>
        <time>2022-09-29T14:52:33Z</time>
      </trkpt>
      <trkpt lat="45.06617" lon="4.09944">
        <ele>1103.25</ele>
        <time>2022-09-29T14:52:53Z</time>
      </trkpt>
      <trkpt lat="45.06632" lon="4.09954">
        <ele>1103.25</ele>
        <time>2022-09-29T14:53:09Z</time>
      </trkpt>
      <trkpt lat="45.06641" lon="4.0995">
        <ele>1102.77</ele>
        <time>2022-09-29T14:53:24Z</time>
      </trkpt>
      <trkpt lat="45.06642" lon="4.0995">
        <ele>1101.81</ele>
        <time>2022-09-29T14:53:49Z</time>
      </trkpt>
      <trkpt lat="45.06644" lon="4.09945">
        <ele>1101.33</ele>
        <time>2022-09-29T14:53:58Z</time>
      </trkpt>
      <trkpt lat="45.06647" lon="4.09926">
        <ele>1100.85</ele>
        <time>2022-09-29T14:54:11Z</time>
      </trkpt>
      <trkpt lat="45.06648" lon="4.09923">
        <ele>1100.85</ele>
        <time>2022-09-29T14:54:13Z</time>
      </trkpt>
      <trkpt lat="45.0665" lon="4.09916">
        <ele>1101.33</ele>
        <time>2022-09-29T14:54:18Z</time>
      </trkpt>
      <trkpt lat="45.0666" lon="4.09895">
        <ele>1099.89</ele>
        <time>2022-09-29T14:54:31Z</time>
      </trkpt>
      <trkpt lat="45.06665" lon="4.09878">
        <ele>1097.96</ele>
        <time>2022-09-29T14:54:47Z</time>
      </trkpt>
      <trkpt lat="45.06677" lon="4.09859">
        <ele>1096.04</ele>
        <time>2022-09-29T14:55:03Z</time>
      </trkpt>
      <trkpt lat="45.06691" lon="4.09835">
        <ele>1093.64</ele>
        <time>2022-09-29T14:55:20Z</time>
      </trkpt>
      <trkpt lat="45.06703" lon="4.09819">
        <ele>1091.23</ele>
        <time>2022-09-29T14:55:35Z</time>
      </trkpt>
      <trkpt lat="45.06705" lon="4.0981">
        <ele>1089.79</ele>
        <time>2022-09-29T14:55:50Z</time>
      </trkpt>
      <trkpt lat="45.06705" lon="4.09809">
        <ele>1089.79</ele>
        <time>2022-09-29T14:56:18Z</time>
      </trkpt>
      <trkpt lat="45.0671" lon="4.09809">
        <ele>1088.83</ele>
        <time>2022-09-29T14:56:37Z</time>
      </trkpt>
      <trkpt lat="45.06718" lon="4.098">
        <ele>1087.39</ele>
        <time>2022-09-29T14:56:57Z</time>
      </trkpt>
      <trkpt lat="45.06733" lon="4.09784">
        <ele>1086.43</ele>
        <time>2022-09-29T14:57:14Z</time>
      </trkpt>
      <trkpt lat="45.0674" lon="4.09776">
        <ele>1085.47</ele>
        <time>2022-09-29T14:57:34Z</time>
      </trkpt>
      <trkpt lat="45.06754" lon="4.09744">
        <ele>1080.66</ele>
        <time>2022-09-29T14:57:52Z</time>
      </trkpt>
      <trkpt lat="45.06767" lon="4.09724">
        <ele>1079.7</ele>
        <time>2022-09-29T14:58:07Z</time>
      </trkpt>
      <trkpt lat="45.0677" lon="4.09714">
        <ele>1079.22</ele>
        <time>2022-09-29T14:58:14Z</time>
      </trkpt>
      <trkpt lat="45.06775" lon="4.09699">
        <ele>1079.22</ele>
        <time>2022-09-29T14:58:25Z</time>
      </trkpt>
      <trkpt lat="45.06774" lon="4.09673">
        <ele>1078.74</ele>
        <time>2022-09-29T14:58:40Z</time>
      </trkpt>
      <trkpt lat="45.06773" lon="4.0965">
        <ele>1076.81</ele>
        <time>2022-09-29T14:58:54Z</time>
      </trkpt>
      <trkpt lat="45.06773" lon="4.09625">
        <ele>1076.33</ele>
        <time>2022-09-29T14:59:08Z</time>
      </trkpt>
      <trkpt lat="45.06772" lon="4.09607">
        <ele>1076.81</ele>
        <time>2022-09-29T14:59:23Z</time>
      </trkpt>
      <trkpt lat="45.06772" lon="4.0958">
        <ele>1076.33</ele>
        <time>2022-09-29T14:59:37Z</time>
      </trkpt>
      <trkpt lat="45.06774" lon="4.09554">
        <ele>1075.37</ele>
        <time>2022-09-29T14:59:50Z</time>
      </trkpt>
      <trkpt lat="45.06774" lon="4.09551">
        <ele>1075.37</ele>
        <time>2022-09-29T14:59:51Z</time>
      </trkpt>
      <trkpt lat="45.06776" lon="4.09524">
        <ele>1074.41</ele>
        <time>2022-09-29T15:00:05Z</time>
      </trkpt>
      <trkpt lat="45.06776" lon="4.09498">
        <ele>1073.93</ele>
        <time>2022-09-29T15:00:19Z</time>
      </trkpt>
      <trkpt lat="45.06775" lon="4.09472">
        <ele>1075.37</ele>
        <time>2022-09-29T15:00:32Z</time>
      </trkpt>
      <trkpt lat="45.06775" lon="4.09452">
        <ele>1075.37</ele>
        <time>2022-09-29T15:00:44Z</time>
      </trkpt>
      <trkpt lat="45.06779" lon="4.09435">
        <ele>1074.89</ele>
        <time>2022-09-29T15:00:54Z</time>
      </trkpt>
      <trkpt lat="45.0679" lon="4.09413">
        <ele>1075.37</ele>
        <time>2022-09-29T15:01:09Z</time>
      </trkpt>
      <trkpt lat="45.06796" lon="4.09399">
        <ele>1075.85</ele>
        <time>2022-09-29T15:01:19Z</time>
      </trkpt>
      <trkpt lat="45.068" lon="4.09391">
        <ele>1075.37</ele>
        <time>2022-09-29T15:01:27Z</time>
      </trkpt>
      <trkpt lat="45.06814" lon="4.09379">
        <ele>1075.37</ele>
        <time>2022-09-29T15:01:38Z</time>
      </trkpt>
      <trkpt lat="45.06828" lon="4.09375">
        <ele>1075.37</ele>
        <time>2022-09-29T15:01:49Z</time>
      </trkpt>
      <trkpt lat="45.0684" lon="4.09367">
        <ele>1075.85</ele>
        <time>2022-09-29T15:02:00Z</time>
      </trkpt>
      <trkpt lat="45.06853" lon="4.09354">
        <ele>1075.85</ele>
        <time>2022-09-29T15:02:10Z</time>
      </trkpt>
      <trkpt lat="45.06855" lon="4.09352">
        <ele>1075.85</ele>
        <time>2022-09-29T15:02:12Z</time>
      </trkpt>
      <trkpt lat="45.06864" lon="4.09339">
        <ele>1073.93</ele>
        <time>2022-09-29T15:02:24Z</time>
      </trkpt>
      <trkpt lat="45.06871" lon="4.09331">
        <ele>1072.97</ele>
        <time>2022-09-29T15:02:33Z</time>
      </trkpt>
      <trkpt lat="45.06882" lon="4.09317">
        <ele>1072.01</ele>
        <time>2022-09-29T15:02:49Z</time>
      </trkpt>
      <trkpt lat="45.06896" lon="4.093">
        <ele>1071.53</ele>
        <time>2022-09-29T15:03:01Z</time>
      </trkpt>
      <trkpt lat="45.06901" lon="4.09277">
        <ele>1069.6</ele>
        <time>2022-09-29T15:03:13Z</time>
      </trkpt>
      <trkpt lat="45.06902" lon="4.09261">
        <ele>1066.72</ele>
        <time>2022-09-29T15:03:23Z</time>
      </trkpt>
      <trkpt lat="45.06909" lon="4.09245">
        <ele>1063.84</ele>
        <time>2022-09-29T15:03:35Z</time>
      </trkpt>
      <trkpt lat="45.06929" lon="4.09229">
        <ele>1062.87</ele>
        <time>2022-09-29T15:03:54Z</time>
      </trkpt>
      <trkpt lat="45.06942" lon="4.09211">
        <ele>1062.87</ele>
        <time>2022-09-29T15:04:08Z</time>
      </trkpt>
      <trkpt lat="45.06951" lon="4.09199">
        <ele>1061.91</ele>
        <time>2022-09-29T15:04:21Z</time>
      </trkpt>
      <trkpt lat="45.06971" lon="4.0918">
        <ele>1060.47</ele>
        <time>2022-09-29T15:04:37Z</time>
      </trkpt>
      <trkpt lat="45.06977" lon="4.09172">
        <ele>1059.99</ele>
        <time>2022-09-29T15:04:43Z</time>
      </trkpt>
      <trkpt lat="45.0699" lon="4.0917">
        <ele>1059.99</ele>
        <time>2022-09-29T15:05:01Z</time>
      </trkpt>
      <trkpt lat="45.06991" lon="4.0917">
        <ele>1059.99</ele>
        <time>2022-09-29T15:05:02Z</time>
      </trkpt>
      <trkpt lat="45.07" lon="4.09194">
        <ele>1060.95</ele>
        <time>2022-09-29T15:05:20Z</time>
      </trkpt>
      <trkpt lat="45.07008" lon="4.09215">
        <ele>1064.32</ele>
        <time>2022-09-29T15:05:38Z</time>
      </trkpt>
      <trkpt lat="45.07015" lon="4.09234">
        <ele>1066.72</ele>
        <time>2022-09-29T15:05:55Z</time>
      </trkpt>
      <trkpt lat="45.07023" lon="4.09258">
        <ele>1070.08</ele>
        <time>2022-09-29T15:06:14Z</time>
      </trkpt>
      <trkpt lat="45.07037" lon="4.09276">
        <ele>1073.93</ele>
        <time>2022-09-29T15:06:31Z</time>
      </trkpt>
      <trkpt lat="45.07047" lon="4.09293">
        <ele>1077.78</ele>
        <time>2022-09-29T15:06:48Z</time>
      </trkpt>
      <trkpt lat="45.07054" lon="4.09301">
        <ele>1080.18</ele>
        <time>2022-09-29T15:07:07Z</time>
      </trkpt>
      <trkpt lat="45.07057" lon="4.09306">
        <ele>1082.1</ele>
        <time>2022-09-29T15:07:25Z</time>
      </trkpt>
      <trkpt lat="45.07063" lon="4.09312">
        <ele>1083.06</ele>
        <time>2022-09-29T15:07:39Z</time>
      </trkpt>
      <trkpt lat="45.07073" lon="4.09324">
        <ele>1084.02</ele>
        <time>2022-09-29T15:07:53Z</time>
      </trkpt>
      <trkpt lat="45.07075" lon="4.09328">
        <ele>1084.02</ele>
        <time>2022-09-29T15:07:56Z</time>
      </trkpt>
      <trkpt lat="45.07078" lon="4.09333">
        <ele>1084.99</ele>
        <time>2022-09-29T15:08:00Z</time>
      </trkpt>
      <trkpt lat="45.0708" lon="4.09337">
        <ele>1085.47</ele>
        <time>2022-09-29T15:08:04Z</time>
      </trkpt>
      <trkpt lat="45.0709" lon="4.09356">
        <ele>1089.31</ele>
        <time>2022-09-29T15:08:21Z</time>
      </trkpt>
      <trkpt lat="45.07098" lon="4.09378">
        <ele>1091.71</ele>
        <time>2022-09-29T15:08:38Z</time>
      </trkpt>
      <trkpt lat="45.07104" lon="4.09394">
        <ele>1093.64</ele>
        <time>2022-09-29T15:08:49Z</time>
      </trkpt>
      <trkpt lat="45.07112" lon="4.09419">
        <ele>1098.44</ele>
        <time>2022-09-29T15:09:07Z</time>
      </trkpt>
      <trkpt lat="45.07117" lon="4.09438">
        <ele>1099.89</ele>
        <time>2022-09-29T15:09:21Z</time>
      </trkpt>
      <trkpt lat="45.07119" lon="4.09446">
        <ele>1100.37</ele>
        <time>2022-09-29T15:09:37Z</time>
      </trkpt>
      <trkpt lat="45.07119" lon="4.09446">
        <ele>1100.85</ele>
        <time>2022-09-29T15:10:02Z</time>
      </trkpt>
      <trkpt lat="45.07125" lon="4.09466">
        <ele>1102.29</ele>
        <time>2022-09-29T15:10:16Z</time>
      </trkpt>
      <trkpt lat="45.0713" lon="4.09493">
        <ele>1103.73</ele>
        <time>2022-09-29T15:10:32Z</time>
      </trkpt>
      <trkpt lat="45.07132" lon="4.09521">
        <ele>1105.65</ele>
        <time>2022-09-29T15:10:48Z</time>
      </trkpt>
      <trkpt lat="45.07135" lon="4.09545">
        <ele>1108.54</ele>
        <time>2022-09-29T15:11:05Z</time>
      </trkpt>
      <trkpt lat="45.0714" lon="4.09569">
        <ele>1111.42</ele>
        <time>2022-09-29T15:11:21Z</time>
      </trkpt>
      <trkpt lat="45.07146" lon="4.09594">
        <ele>1114.79</ele>
        <time>2022-09-29T15:11:39Z</time>
      </trkpt>
      <trkpt lat="45.07152" lon="4.09614">
        <ele>1119.59</ele>
        <time>2022-09-29T15:11:55Z</time>
      </trkpt>
      <trkpt lat="45.07159" lon="4.09636">
        <ele>1122</ele>
        <time>2022-09-29T15:12:10Z</time>
      </trkpt>
      <trkpt lat="45.07161" lon="4.0964">
        <ele>1122.96</ele>
        <time>2022-09-29T15:12:13Z</time>
      </trkpt>
      <trkpt lat="45.07169" lon="4.09664">
        <ele>1125.84</ele>
        <time>2022-09-29T15:12:31Z</time>
      </trkpt>
      <trkpt lat="45.07175" lon="4.09677">
        <ele>1126.8</ele>
        <time>2022-09-29T15:12:40Z</time>
      </trkpt>
      <trkpt lat="45.07181" lon="4.09688">
        <ele>1128.24</ele>
        <time>2022-09-29T15:12:55Z</time>
      </trkpt>
      <trkpt lat="45.07182" lon="4.09689">
        <ele>1128.24</ele>
        <time>2022-09-29T15:12:56Z</time>
      </trkpt>
      <trkpt lat="45.07185" lon="4.09696">
        <ele>1129.69</ele>
        <time>2022-09-29T15:13:04Z</time>
      </trkpt>
      <trkpt lat="45.07189" lon="4.09724">
        <ele>1132.09</ele>
        <time>2022-09-29T15:13:23Z</time>
      </trkpt>
      <trkpt lat="45.07194" lon="4.09741">
        <ele>1134.97</ele>
        <time>2022-09-29T15:13:35Z</time>
      </trkpt>
      <trkpt lat="45.07202" lon="4.0974">
        <ele>1135.45</ele>
        <time>2022-09-29T15:13:45Z</time>
      </trkpt>
      <trkpt lat="45.07204" lon="4.09737">
        <ele>1135.45</ele>
        <time>2022-09-29T15:13:48Z</time>
      </trkpt>
      <trkpt lat="45.07212" lon="4.09721">
        <ele>1134.49</ele>
        <time>2022-09-29T15:14:02Z</time>
      </trkpt>
      <trkpt lat="45.07219" lon="4.09713">
        <ele>1136.9</ele>
        <time>2022-09-29T15:14:17Z</time>
      </trkpt>
      <trkpt lat="45.07219" lon="4.09714">
        <ele>1136.9</ele>
        <time>2022-09-29T15:14:23Z</time>
      </trkpt>
      <trkpt lat="45.07216" lon="4.0972">
        <ele>1137.38</ele>
        <time>2022-09-29T15:14:39Z</time>
      </trkpt>
      <trkpt lat="45.07216" lon="4.09721">
        <ele>1137.86</ele>
        <time>2022-09-29T15:15:05Z</time>
      </trkpt>
      <trkpt lat="45.07217" lon="4.09723">
        <ele>1139.3</ele>
        <time>2022-09-29T15:15:35Z</time>
      </trkpt>
      <trkpt lat="45.07219" lon="4.09724">
        <ele>1139.78</ele>
        <time>2022-09-29T15:15:59Z</time>
      </trkpt>
      <trkpt lat="45.0722" lon="4.09724">
        <ele>1140.74</ele>
        <time>2022-09-29T15:16:27Z</time>
      </trkpt>
      <trkpt lat="45.0722" lon="4.09725">
        <ele>1141.7</ele>
        <time>2022-09-29T15:16:57Z</time>
      </trkpt>
      <trkpt lat="45.0722" lon="4.09724">
        <ele>1143.14</ele>
        <time>2022-09-29T15:17:24Z</time>
      </trkpt>
      <trkpt lat="45.07219" lon="4.09727">
        <ele>1143.63</ele>
        <time>2022-09-29T15:17:52Z</time>
      </trkpt>
      <trkpt lat="45.0722" lon="4.09727">
        <ele>1143.63</ele>
        <time>2022-09-29T15:18:19Z</time>
      </trkpt>
      <trkpt lat="45.07221" lon="4.09727">
        <ele>1144.59</ele>
        <time>2022-09-29T15:18:51Z</time>
      </trkpt>
      <trkpt lat="45.07221" lon="4.09727">
        <ele>1145.07</ele>
        <time>2022-09-29T15:19:18Z</time>
      </trkpt>
      <trkpt lat="45.07224" lon="4.09724">
        <ele>1146.99</ele>
        <time>2022-09-29T15:19:40Z</time>
      </trkpt>
      <trkpt lat="45.07223" lon="4.09725">
        <ele>1147.95</ele>
        <time>2022-09-29T15:20:07Z</time>
      </trkpt>
      <trkpt lat="45.07224" lon="4.09723">
        <ele>1148.43</ele>
        <time>2022-09-29T15:20:37Z</time>
      </trkpt>
      <trkpt lat="45.07213" lon="4.09725">
        <ele>1148.43</ele>
        <time>2022-09-29T15:21:02Z</time>
      </trkpt>
      <trkpt lat="45.07213" lon="4.09725">
        <ele>1148.91</ele>
        <time>2022-09-29T15:21:27Z</time>
      </trkpt>
      <trkpt lat="45.07216" lon="4.09723">
        <ele>1148.91</ele>
        <time>2022-09-29T15:21:59Z</time>
      </trkpt>
      <trkpt lat="45.0722" lon="4.09723">
        <ele>1149.39</ele>
        <time>2022-09-29T15:22:25Z</time>
      </trkpt>
      <trkpt lat="45.07221" lon="4.09723">
        <ele>1149.39</ele>
        <time>2022-09-29T15:23:01Z</time>
      </trkpt>
      <trkpt lat="45.07221" lon="4.09723">
        <ele>1149.39</ele>
        <time>2022-09-29T15:23:28Z</time>
      </trkpt>
      <trkpt lat="45.0722" lon="4.09722">
        <ele>1147.95</ele>
        <time>2022-09-29T15:23:58Z</time>
      </trkpt>
      <trkpt lat="45.0722" lon="4.09722">
        <ele>1147.47</ele>
        <time>2022-09-29T15:24:21Z</time>
      </trkpt>
      <trkpt lat="45.07219" lon="4.09722">
        <ele>1146.99</ele>
        <time>2022-09-29T15:24:36Z</time>
      </trkpt>
      <trkpt lat="45.07218" lon="4.09741">
        <ele>1145.07</ele>
        <time>2022-09-29T15:24:51Z</time>
      </trkpt>
      <trkpt lat="45.07217" lon="4.0975">
        <ele>1147.47</ele>
        <time>2022-09-29T15:25:08Z</time>
      </trkpt>
      <trkpt lat="45.07218" lon="4.09763">
        <ele>1147.95</ele>
        <time>2022-09-29T15:25:25Z</time>
      </trkpt>
      <trkpt lat="45.07227" lon="4.09783">
        <ele>1147.47</ele>
        <time>2022-09-29T15:25:39Z</time>
      </trkpt>
      <trkpt lat="45.07231" lon="4.09789">
        <ele>1146.51</ele>
        <time>2022-09-29T15:25:44Z</time>
      </trkpt>
      <trkpt lat="45.07248" lon="4.09809">
        <ele>1143.63</ele>
        <time>2022-09-29T15:26:01Z</time>
      </trkpt>
      <trkpt lat="45.0725" lon="4.09806">
        <ele>1144.11</ele>
        <time>2022-09-29T15:26:17Z</time>
      </trkpt>
      <trkpt lat="45.07253" lon="4.09811">
        <ele>1146.03</ele>
        <time>2022-09-29T15:26:43Z</time>
      </trkpt>
      <trkpt lat="45.07261" lon="4.09814">
        <ele>1146.99</ele>
        <time>2022-09-29T15:27:01Z</time>
      </trkpt>
      <trkpt lat="45.0728" lon="4.09833">
        <ele>1148.91</ele>
        <time>2022-09-29T15:27:17Z</time>
      </trkpt>
      <trkpt lat="45.07302" lon="4.09857">
        <ele>1148.91</ele>
        <time>2022-09-29T15:27:36Z</time>
      </trkpt>
      <trkpt lat="45.07319" lon="4.09875">
        <ele>1147.95</ele>
        <time>2022-09-29T15:27:51Z</time>
      </trkpt>
      <trkpt lat="45.07342" lon="4.09904">
        <ele>1146.51</ele>
        <time>2022-09-29T15:28:11Z</time>
      </trkpt>
      <trkpt lat="45.07356" lon="4.09929">
        <ele>1145.55</ele>
        <time>2022-09-29T15:28:27Z</time>
      </trkpt>
      <trkpt lat="45.07351" lon="4.09957">
        <ele>1146.99</ele>
        <time>2022-09-29T15:28:43Z</time>
      </trkpt>
      <trkpt lat="45.07348" lon="4.09961">
        <ele>1147.47</ele>
        <time>2022-09-29T15:29:02Z</time>
      </trkpt>
      <trkpt lat="45.07341" lon="4.09982">
        <ele>1148.43</ele>
        <time>2022-09-29T15:29:14Z</time>
      </trkpt>
      <trkpt lat="45.07328" lon="4.1">
        <ele>1149.39</ele>
        <time>2022-09-29T15:29:29Z</time>
      </trkpt>
      <trkpt lat="45.07313" lon="4.10019">
        <ele>1149.87</ele>
        <time>2022-09-29T15:29:45Z</time>
      </trkpt>
      <trkpt lat="45.07305" lon="4.10025">
        <ele>1150.84</ele>
        <time>2022-09-29T15:30:01Z</time>
      </trkpt>
      <trkpt lat="45.07305" lon="4.10028">
        <ele>1149.87</ele>
        <time>2022-09-29T15:30:24Z</time>
      </trkpt>
      <trkpt lat="45.07306" lon="4.10029">
        <ele>1149.39</ele>
        <time>2022-09-29T15:30:48Z</time>
      </trkpt>
      <trkpt lat="45.07305" lon="4.1003">
        <ele>1148.91</ele>
        <time>2022-09-29T15:31:06Z</time>
      </trkpt>
      <trkpt lat="45.07306" lon="4.10029">
        <ele>1149.39</ele>
        <time>2022-09-29T15:31:21Z</time>
      </trkpt>
      <trkpt lat="45.07305" lon="4.1003">
        <ele>1149.39</ele>
        <time>2022-09-29T15:31:39Z</time>
      </trkpt>
      <trkpt lat="45.07303" lon="4.10027">
        <ele>1150.35</ele>
        <time>2022-09-29T15:31:56Z</time>
      </trkpt>
      <trkpt lat="45.07303" lon="4.10026">
        <ele>1151.32</ele>
        <time>2022-09-29T15:32:11Z</time>
      </trkpt>
    </trkseg>
  </trk>
</gpx>